Observation data for Claude 12 Southwest on 05/24/2020      Previous  Date  Next       Current Mesonet Observations  Soil Data  Daily Summary Page  Observations in Plain Language
KCL1 240500Z 15011KT 19/11 A2983 RMK A01 T01870106  RH  059%=      5-min Rain = 0
KCL1 240501Z 15014KT 19/11 A2983 RMK A01 T01870106  RH  059%=      5-min Rain = 0
KCL1 240502Z 15013KT 19/11 A2983 RMK A01 T01870106  RH  060%=      5-min Rain = 0
KCL1 240503Z 14010KT 19/11 A2982 RMK A01 T01870107  RH  060%=      5-min Rain = 0
KCL1 240504Z 13013KT 19/11 A2983 RMK A01 T01860106  RH  060%=      5-min Rain = 0
KCL1 240505Z 14013KT 19/11 A2983 RMK A01 T01850107  RH  060%=      5-min Rain = 0
KCL1 240506Z 14015KT 19/11 A2982 RMK A01 T01850107  RH  060%=      5-min Rain = 0
KCL1 240507Z 14015KT 19/11 A2982 RMK A01 T01850107  RH  060%=      5-min Rain = 0
KCL1 240508Z 15013KT 19/11 A2982 RMK A01 T01850108  RH  061%=      5-min Rain = 0
KCL1 240509Z 16011KT 18/11 A2983 RMK A01 T01840107  RH  061%=      5-min Rain = 0
KCL1 240510Z 16011KT 18/11 A2983 RMK A01 T01840107  RH  061%=      5-min Rain = 0
KCL1 240511Z 16011KT 18/11 A2982 RMK A01 T01840107  RH  061%=      5-min Rain = 0
KCL1 240512Z 16011KT 18/11 A2983 RMK A01 T01840107  RH  061%=      5-min Rain = 0
KCL1 240513Z 16011KT 18/11 A2983 RMK A01 T01840107  RH  061%=      5-min Rain = 0
KCL1 240514Z 14015KT 18/11 A2982 RMK A01 T01840107  RH  061%=      5-min Rain = 0
KCL1 240515Z 13014KT 18/11 A2982 RMK A01 T01840108  RH  061%=      5-min Rain = 0
KCL1 240516Z 14014KT 18/11 A2982 RMK A01 T01840108  RH  061%=      5-min Rain = 0
KCL1 240517Z 14014KT 18/11 A2982 RMK A01 T01840108  RH  061%=      5-min Rain = 0
KCL1 240518Z 14011KT 18/11 A2982 RMK A01 T01840108  RH  061%=      5-min Rain = 0
KCL1 240519Z 16010KT 18/11 A2982 RMK A01 T01830108  RH  062%=      5-min Rain = 0
KCL1 240520Z 15014KT 18/11 A2982 RMK A01 T01830108  RH  062%=      5-min Rain = 0
KCL1 240521Z 15012KT 18/11 A2982 RMK A01 T01820108  RH  062%=      5-min Rain = 0
KCL1 240522Z 14011KT 18/11 A2982 RMK A01 T01820108  RH  062%=      5-min Rain = 0
KCL1 240523Z 14012KT 18/11 A2982 RMK A01 T01820108  RH  062%=      5-min Rain = 0
KCL1 240524Z 14011KT 18/11 A2982 RMK A01 T01820108  RH  062%=      5-min Rain = 0
KCL1 240525Z 15013KT 18/11 A2982 RMK A01 T01820108  RH  062%=      5-min Rain = 0
KCL1 240526Z 15013KT 18/11 A2983 RMK A01 T01810108  RH  062%=      5-min Rain = 0
KCL1 240527Z 16011KT 18/11 A2982 RMK A01 T01810108  RH  062%=      5-min Rain = 0
KCL1 240528Z 15010KT 18/11 A2982 RMK A01 T01820108  RH  062%=      5-min Rain = 0
KCL1 240529Z 16011KT 18/11 A2982 RMK A01 T01820108  RH  062%=      5-min Rain = 0
KCL1 240530Z 15009KT 18/11 A2982 RMK A01 T01820109  RH  062%=      5-min Rain = 0
KCL1 240531Z 16008KT 18/11 A2983 RMK A01 T01810108  RH  062%=      5-min Rain = 0
KCL1 240532Z 17009KT 18/11 A2983 RMK A01 T01810109  RH  063%=      5-min Rain = 0
KCL1 240533Z 16011KT 18/11 A2983 RMK A01 T01800108  RH  063%=      5-min Rain = 0
KCL1 240534Z 13013KT 18/11 A2982 RMK A01 T01810107  RH  062%=      5-min Rain = 0
KCL1 240535Z 13011KT 18/11 A2981 RMK A01 T01820108  RH  062%=      5-min Rain = 0
KCL1 240536Z 14016G26KT 18/11 A2981 RMK A01 T01820106  RH  061%=      5-min Rain = 0
KCL1 240537Z 15018G23KT 19/10 A2981 RMK A01 T01860097  RH  056%=      5-min Rain = 0
KCL1 240538Z 17012KT 19/10 A2982 RMK A01 T01920100  RH  055%=      5-min Rain = 0
KCL1 240539Z 20011KT 19/10 A2983 RMK A01 T01940103  RH  056%=      5-min Rain = 0
KCL1 240540Z 19008KT 19/10 A2983 RMK A01 T01930103  RH  056%=      5-min Rain = 0
KCL1 240541Z 17010KT 19/10 A2983 RMK A01 T01930103  RH  056%=      5-min Rain = 0
KCL1 240542Z 17010KT 19/10 A2983 RMK A01 T01920104  RH  057%=      5-min Rain = 0
KCL1 240543Z 17009G14KT 19/11 A2983 RMK A01 T01910105  RH  057%=      5-min Rain = 0
KCL1 240544Z 16011KT 19/10 A2983 RMK A01 T01900104  RH  057%=      5-min Rain = 0
KCL1 240545Z 16011KT 19/10 A2982 RMK A01 T01900104  RH  057%=      5-min Rain = 0
KCL1 240546Z 15009KT 19/10 A2982 RMK A01 T01890104  RH  058%=      5-min Rain = 0
KCL1 240547Z 15011KT 19/10 A2982 RMK A01 T01880104  RH  058%=      5-min Rain = 0
KCL1 240548Z 16011KT 19/10 A2982 RMK A01 T01890104  RH  058%=      5-min Rain = 0
KCL1 240549Z 16011KT 19/10 A2983 RMK A01 T01880103  RH  058%=      5-min Rain = 0
KCL1 240550Z 16009KT 19/10 A2983 RMK A01 T01880104  RH  058%=      5-min Rain = 0
KCL1 240551Z 17009KT 19/11 A2983 RMK A01 T01880105  RH  058%=      5-min Rain = 0
KCL1 240552Z 18008KT 19/10 A2983 RMK A01 T01870104  RH  059%=      5-min Rain = 0
KCL1 240553Z 16009KT 19/10 A2983 RMK A01 T01870104  RH  059%=      5-min Rain = 0
KCL1 240554Z 14012KT 19/10 A2983 RMK A01 T01860104  RH  059%=      5-min Rain = 0
KCL1 240555Z 16009KT 19/10 A2983 RMK A01 T01870104  RH  058%=      5-min Rain = 0
KCL1 240556Z 15007KT 19/10 A2982 RMK A01 T01870104  RH  058%=      5-min Rain = 0
KCL1 240557Z 15010KT 19/11 A2983 RMK A01 T01870105  RH  059%=      5-min Rain = 0
KCL1 240558Z 16008KT 19/10 A2983 RMK A01 T01870104  RH  059%=      5-min Rain = 0
KCL1 240559Z 16008KT 19/10 A2982 RMK A01 T01860104  RH  059%=      5-min Rain = 0
KCL1 240600Z 16010KT 19/10 A2982 RMK A01 T01860104  RH  059%=      5-min Rain = 0
KCL1 240601Z 17010KT 19/10 A2982 RMK A01 T01860103  RH  059%=      5-min Rain = 0
KCL1 240602Z 17009KT 19/10 A2982 RMK A01 T01860104  RH  059%=      5-min Rain = 0
KCL1 240603Z 17010KT 19/10 A2982 RMK A01 T01860104  RH  059%=      5-min Rain = 0
KCL1 240604Z 16009KT 19/10 A2982 RMK A01 T01860104  RH  059%=      5-min Rain = 0
KCL1 240605Z 16008KT 19/10 A2982 RMK A01 T01860104  RH  059%=      5-min Rain = 0
KCL1 240606Z 16007KT 19/11 A2982 RMK A01 T01860105  RH  059%=      5-min Rain = 0
KCL1 240607Z 16007KT 19/10 A2982 RMK A01 T01850104  RH  059%=      5-min Rain = 0
KCL1 240608Z 16008KT 19/11 A2982 RMK A01 T01850105  RH  059%=      5-min Rain = 0
KCL1 240609Z 16007KT 18/11 A2982 RMK A01 T01840105  RH  060%=      5-min Rain = 0
KCL1 240610Z 17009KT 18/11 A2982 RMK A01 T01840105  RH  060%=      5-min Rain = 0
KCL1 240611Z 17010KT 18/10 A2982 RMK A01 T01830104  RH  060%=      5-min Rain = 0
KCL1 240612Z 17009KT 18/10 A2982 RMK A01 T01840104  RH  060%=      5-min Rain = 0
KCL1 240613Z 16008KT 18/10 A2982 RMK A01 T01840104  RH  059%=      5-min Rain = 0
KCL1 240614Z 16008KT 18/10 A2982 RMK A01 T01840104  RH  059%=      5-min Rain = 0
KCL1 240615Z 16010KT 19/10 A2982 RMK A01 T01850104  RH  059%=      5-min Rain = 0
KCL1 240616Z 16009KT 18/10 A2982 RMK A01 T01840104  RH  059%=      5-min Rain = 0
KCL1 240617Z 15008KT 19/10 A2982 RMK A01 T01850104  RH  059%=      5-min Rain = 0
KCL1 240618Z 15008KT 19/10 A2981 RMK A01 T01850104  RH  059%=      5-min Rain = 0
KCL1 240619Z 16008KT 19/10 A2982 RMK A01 T01850104  RH  059%=      5-min Rain = 0
KCL1 240620Z 15009KT 19/10 A2981 RMK A01 T01850104  RH  059%=      5-min Rain = 0
KCL1 240621Z 16008KT 18/10 A2981 RMK A01 T01840104  RH  059%=      5-min Rain = 0
KCL1 240622Z 16008KT 18/10 A2981 RMK A01 T01840104  RH  060%=      5-min Rain = 0
KCL1 240623Z 16008KT 18/10 A2981 RMK A01 T01830104  RH  060%=      5-min Rain = 0
KCL1 240624Z 16010KT 18/10 A2982 RMK A01 T01830103  RH  059%=      5-min Rain = 0
KCL1 240625Z 17008KT 18/10 A2982 RMK A01 T01840103  RH  059%=      5-min Rain = 0
KCL1 240626Z 16007KT 18/10 A2982 RMK A01 T01840104  RH  060%=      5-min Rain = 0
KCL1 240627Z 16009KT 18/10 A2982 RMK A01 T01830104  RH  060%=      5-min Rain = 0
KCL1 240628Z 16008KT 18/10 A2982 RMK A01 T01830104  RH  060%=      5-min Rain = 0
KCL1 240629Z 16009KT 18/10 A2982 RMK A01 T01820104  RH  060%=      5-min Rain = 0
KCL1 240630Z 15010KT 18/10 A2982 RMK A01 T01820104  RH  060%=      5-min Rain = 0
KCL1 240631Z 15009KT 18/10 A2982 RMK A01 T01820104  RH  060%=      5-min Rain = 0
KCL1 240632Z 15008KT 18/10 A2982 RMK A01 T01820104  RH  060%=      5-min Rain = 0
KCL1 240633Z 16010KT 18/10 A2982 RMK A01 T01820104  RH  060%=      5-min Rain = 0
KCL1 240634Z 16009KT 18/10 A2982 RMK A01 T01820104  RH  060%=      5-min Rain = 0
KCL1 240635Z 16008KT 18/10 A2982 RMK A01 T01820103  RH  060%=      5-min Rain = 0
KCL1 240636Z 16008KT 18/10 A2982 RMK A01 T01830103  RH  060%=      5-min Rain = 0
KCL1 240637Z 16007KT 18/10 A2982 RMK A01 T01830103  RH  060%=      5-min Rain = 0
KCL1 240638Z 16007KT 18/10 A2982 RMK A01 T01820103  RH  060%=      5-min Rain = 0
KCL1 240639Z 16009KT 18/10 A2982 RMK A01 T01820102  RH  059%=      5-min Rain = 0
KCL1 240640Z 17009KT 18/10 A2982 RMK A01 T01830102  RH  059%=      5-min Rain = 0
KCL1 240641Z 16007KT 18/10 A2982 RMK A01 T01830102  RH  059%=      5-min Rain = 0
KCL1 240642Z 16008KT 18/10 A2982 RMK A01 T01830102  RH  059%=      5-min Rain = 0
KCL1 240643Z 17008KT 18/10 A2982 RMK A01 T01830102  RH  059%=      5-min Rain = 0
KCL1 240644Z 17008KT 18/10 A2982 RMK A01 T01840102  RH  059%=      5-min Rain = 0
KCL1 240645Z 17009KT 18/10 A2982 RMK A01 T01840102  RH  059%=      5-min Rain = 0
KCL1 240646Z 17009KT 18/10 A2982 RMK A01 T01840102  RH  059%=      5-min Rain = 0
KCL1 240647Z 16008KT 18/10 A2982 RMK A01 T01830102  RH  059%=      5-min Rain = 0
KCL1 240648Z 17007KT 18/10 A2982 RMK A01 T01830102  RH  059%=      5-min Rain = 0
KCL1 240649Z 17006KT 18/10 A2982 RMK A01 T01830101  RH  059%=      5-min Rain = 0
KCL1 240650Z 17007KT 18/10 A2983 RMK A01 T01830101  RH  059%=      5-min Rain = 0
KCL1 240651Z 17009G14KT 18/10 A2983 RMK A01 T01830102  RH  059%=      5-min Rain = 0
KCL1 240652Z 18012KT 18/10 A2983 RMK A01 T01830101  RH  059%=      5-min Rain = 0
KCL1 240653Z 17008KT 18/10 A2983 RMK A01 T01840100  RH  058%=      5-min Rain = 0
KCL1 240654Z 17006KT 18/10 A2983 RMK A01 T01840101  RH  058%=      5-min Rain = 0
KCL1 240655Z 16007KT 18/10 A2983 RMK A01 T01840101  RH  058%=      5-min Rain = 0
KCL1 240656Z 16010KT 18/10 A2983 RMK A01 T01830100  RH  059%=      5-min Rain = 0
KCL1 240657Z 17012KT 18/10 A2983 RMK A01 T01830100  RH  058%=      5-min Rain = 0
KCL1 240658Z 17010KT 18/10 A2983 RMK A01 T01830099  RH  058%=      5-min Rain = 0
KCL1 240659Z 16010KT 18/10 A2983 RMK A01 T01840100  RH  058%=      5-min Rain = 0
KCL1 240700Z 16008KT 18/10 A2984 RMK A01 T01840099  RH  058%=      5-min Rain = 0
KCL1 240701Z 17011KT 18/10 A2984 RMK A01 T01840099  RH  058%=      5-min Rain = 0
KCL1 240702Z 17010KT 18/10 A2984 RMK A01 T01840099  RH  058%=      5-min Rain = 0
KCL1 240703Z 16012KT 18/10 A2984 RMK A01 T01840099  RH  058%=      5-min Rain = 0
KCL1 240704Z 15010G16KT 18/10 A2984 RMK A01 T01840099  RH  057%=      5-min Rain = 0
KCL1 240705Z 16010KT 19/10 A2984 RMK A01 T01850099  RH  057%=      5-min Rain = 0
KCL1 240706Z 15010KT 19/10 A2984 RMK A01 T01850099  RH  057%=      5-min Rain = 0
KCL1 240707Z 15011KT 19/10 A2984 RMK A01 T01850099  RH  057%=      5-min Rain = 0
KCL1 240708Z 15012KT 18/10 A2984 RMK A01 T01840099  RH  057%=      5-min Rain = 0
KCL1 240709Z 16008KT 19/10 A2984 RMK A01 T01850099  RH  057%=      5-min Rain = 0
KCL1 240710Z 15008KT 18/10 A2984 RMK A01 T01840100  RH  058%=      5-min Rain = 0
KCL1 240711Z 15007KT 18/10 A2984 RMK A01 T01840100  RH  058%=      5-min Rain = 0
KCL1 240712Z 15007KT 18/10 A2984 RMK A01 T01830101  RH  058%=      5-min Rain = 0
KCL1 240713Z 15007KT 18/10 A2984 RMK A01 T01820101  RH  059%=      5-min Rain = 0
KCL1 240714Z 15007KT 18/10 A2984 RMK A01 T01820101  RH  059%=      5-min Rain = 0
KCL1 240715Z 14009KT 18/10 A2984 RMK A01 T01810101  RH  059%=      5-min Rain = 0
KCL1 240716Z 15008KT 18/10 A2984 RMK A01 T01810101  RH  060%=      5-min Rain = 0
KCL1 240717Z 16008KT 18/10 A2985 RMK A01 T01800101  RH  060%=      5-min Rain = 0
KCL1 240718Z 17009KT 18/10 A2985 RMK A01 T01800101  RH  060%=      5-min Rain = 0
KCL1 240719Z 18007KT 18/10 A2985 RMK A01 T01810101  RH  059%=      5-min Rain = 0
KCL1 240720Z 17007KT 18/10 A2985 RMK A01 T01810101  RH  059%=      5-min Rain = 0
KCL1 240721Z 15007KT 18/10 A2985 RMK A01 T01810101  RH  059%=      5-min Rain = 0
KCL1 240722Z 13007KT 18/10 A2984 RMK A01 T01810101  RH  059%=      5-min Rain = 0
KCL1 240723Z 12006KT 18/10 A2984 RMK A01 T01810101  RH  059%=      5-min Rain = 0
KCL1 240724Z 14006KT 18/10 A2984 RMK A01 T01810101  RH  059%=      5-min Rain = 0
KCL1 240725Z 17008KT 18/10 A2985 RMK A01 T01800100  RH  059%=      5-min Rain = 0
KCL1 240726Z 18008KT 18/10 A2985 RMK A01 T01810100  RH  059%=      5-min Rain = 0
KCL1 240727Z 18007KT 18/10 A2985 RMK A01 T01810099  RH  059%=      5-min Rain = 0
KCL1 240728Z 17008KT 18/10 A2985 RMK A01 T01810100  RH  059%=      5-min Rain = 0
KCL1 240729Z 16006KT 18/10 A2985 RMK A01 T01820100  RH  059%=      5-min Rain = 0
KCL1 240730Z 15006KT 18/10 A2985 RMK A01 T01820100  RH  059%=      5-min Rain = 0
KCL1 240731Z 15007KT 18/10 A2984 RMK A01 T01820101  RH  059%=      5-min Rain = 0
KCL1 240732Z 16008KT 18/10 A2985 RMK A01 T01810100  RH  059%=      5-min Rain = 0
KCL1 240733Z 16007KT 18/10 A2984 RMK A01 T01800100  RH  059%=      5-min Rain = 0
KCL1 240734Z 17006KT 18/10 A2984 RMK A01 T01800100  RH  059%=      5-min Rain = 0
KCL1 240735Z 16006KT 18/10 A2984 RMK A01 T01800100  RH  059%=      5-min Rain = 0
KCL1 240736Z 17007KT 18/10 A2985 RMK A01 T01800101  RH  060%=      5-min Rain = 0
KCL1 240737Z 16006KT 18/10 A2985 RMK A01 T01790100  RH  060%=      5-min Rain = 0
KCL1 240738Z 17007KT 18/10 A2985 RMK A01 T01790101  RH  060%=      5-min Rain = 0
KCL1 240739Z 17007KT 18/10 A2985 RMK A01 T01780101  RH  060%=      5-min Rain = 0
KCL1 240740Z 16007KT 18/10 A2985 RMK A01 T01780101  RH  061%=      5-min Rain = 0
KCL1 240741Z 15006KT 18/10 A2985 RMK A01 T01780102  RH  061%=      5-min Rain = 0
KCL1 240742Z 16005KT 18/10 A2985 RMK A01 T01770102  RH  061%=      5-min Rain = 0
KCL1 240743Z 16007KT 18/10 A2985 RMK A01 T01770102  RH  061%=      5-min Rain = 0
KCL1 240744Z 16007KT 18/10 A2985 RMK A01 T01760102  RH  062%=      5-min Rain = 0
KCL1 240745Z 17009KT 18/10 A2985 RMK A01 T01760101  RH  062%=      5-min Rain = 0
KCL1 240746Z 18007KT 18/10 A2985 RMK A01 T01760101  RH  061%=      5-min Rain = 0
KCL1 240747Z 18008KT 18/10 A2985 RMK A01 T01760101  RH  061%=      5-min Rain = 0
KCL1 240748Z 17008KT 18/10 A2985 RMK A01 T01760102  RH  062%=      5-min Rain = 0
KCL1 240749Z 17010KT 18/10 A2985 RMK A01 T01760102  RH  062%=      5-min Rain = 0
KCL1 240750Z 17011KT 18/10 A2985 RMK A01 T01760101  RH  061%=      5-min Rain = 0
KCL1 240751Z 16008KT 18/10 A2985 RMK A01 T01780101  RH  061%=      5-min Rain = 0
KCL1 240752Z 15009KT 18/10 A2985 RMK A01 T01780102  RH  061%=      5-min Rain = 0
KCL1 240753Z 17008KT 18/10 A2984 RMK A01 T01780102  RH  061%=      5-min Rain = 0
KCL1 240754Z 16009KT 18/10 A2985 RMK A01 T01770102  RH  061%=      5-min Rain = 0
KCL1 240755Z 16010KT 18/10 A2984 RMK A01 T01770102  RH  061%=      5-min Rain = 0
KCL1 240756Z 16008KT 18/10 A2984 RMK A01 T01770102  RH  061%=      5-min Rain = 0
KCL1 240757Z 16008KT 18/10 A2984 RMK A01 T01770102  RH  061%=      5-min Rain = 0
KCL1 240758Z 17008KT 18/10 A2984 RMK A01 T01760102  RH  062%=      5-min Rain = 0
KCL1 240759Z 18009KT 18/10 A2984 RMK A01 T01750102  RH  062%=      5-min Rain = 0
KCL1 240800Z 18008KT 18/10 A2984 RMK A01 T01760102  RH  062%=      5-min Rain = 0
KCL1 240801Z 17007KT 18/10 A2984 RMK A01 T01750101  RH  062%=      5-min Rain = 0
KCL1 240802Z 16009KT 18/10 A2984 RMK A01 T01760101  RH  061%=      5-min Rain = 0
KCL1 240803Z 16007KT 18/10 A2984 RMK A01 T01760101  RH  061%=      5-min Rain = 0
KCL1 240804Z 15012KT 18/10 A2984 RMK A01 T01760101  RH  061%=      5-min Rain = 0
KCL1 240805Z 15010KT 18/10 A2984 RMK A01 T01760100  RH  061%=      5-min Rain = 0
KCL1 240806Z 15010KT 18/10 A2985 RMK A01 T01770100  RH  061%=      5-min Rain = 0
KCL1 240807Z 15008KT 18/10 A2985 RMK A01 T01770100  RH  061%=      5-min Rain = 0
KCL1 240808Z 15010KT 18/10 A2985 RMK A01 T01760100  RH  061%=      5-min Rain = 0
KCL1 240809Z 15009KT 18/10 A2984 RMK A01 T01760099  RH  061%=      5-min Rain = 0
KCL1 240810Z 15008KT 18/10 A2984 RMK A01 T01760098  RH  060%=      5-min Rain = 0
KCL1 240811Z 15008KT 18/10 A2985 RMK A01 T01760098  RH  060%=      5-min Rain = 0
KCL1 240812Z 16006KT 18/10 A2985 RMK A01 T01760098  RH  060%=      5-min Rain = 0
KCL1 240813Z 17006KT 18/10 A2985 RMK A01 T01760097  RH  060%=      5-min Rain = 0
KCL1 240814Z 17007KT 18/10 A2985 RMK A01 T01760097  RH  060%=      5-min Rain = 0
KCL1 240815Z 17005KT 18/10 A2985 RMK A01 T01770097  RH  060%=      5-min Rain = 0
KCL1 240816Z 16007G12KT 18/10 A2985 RMK A01 T01760097  RH  060%=      5-min Rain = 0
KCL1 240817Z 16009KT 18/10 A2985 RMK A01 T01770096  RH  059%=      5-min Rain = 0
KCL1 240818Z 15008KT 18/10 A2985 RMK A01 T01790096  RH  058%=      5-min Rain = 0
KCL1 240819Z 15010KT 18/10 A2985 RMK A01 T01800096  RH  058%=      5-min Rain = 0
KCL1 240820Z 14008KT 18/10 A2985 RMK A01 T01800095  RH  058%=      5-min Rain = 0
KCL1 240821Z 14007KT 18/10 A2985 RMK A01 T01800096  RH  058%=      5-min Rain = 0
KCL1 240822Z 15006KT 18/10 A2985 RMK A01 T01800096  RH  058%=      5-min Rain = 0
KCL1 240823Z 14007KT 18/10 A2985 RMK A01 T01780096  RH  058%=      5-min Rain = 0
KCL1 240824Z 15006KT 18/10 A2985 RMK A01 T01780095  RH  058%=      5-min Rain = 0
KCL1 240825Z 15007KT 18/10 A2985 RMK A01 T01780095  RH  058%=      5-min Rain = 0
KCL1 240826Z 16007KT 18/10 A2985 RMK A01 T01780095  RH  058%=      5-min Rain = 0
KCL1 240827Z 15007KT 18/09 A2985 RMK A01 T01770094  RH  058%=      5-min Rain = 0
KCL1 240828Z 15009KT 18/09 A2985 RMK A01 T01770094  RH  058%=      5-min Rain = 0
KCL1 240829Z 15007KT 18/09 A2985 RMK A01 T01780092  RH  057%=      5-min Rain = 0
KCL1 240830Z 15008KT 18/09 A2985 RMK A01 T01790093  RH  057%=      5-min Rain = 0
KCL1 240831Z 15010KT 18/09 A2985 RMK A01 T01790092  RH  057%=      5-min Rain = 0
KCL1 240832Z 15008KT 18/09 A2985 RMK A01 T01800091  RH  056%=      5-min Rain = 0
KCL1 240833Z 15007KT 18/09 A2985 RMK A01 T01810091  RH  056%=      5-min Rain = 0
KCL1 240834Z 15007KT 18/09 A2985 RMK A01 T01820092  RH  056%=      5-min Rain = 0
KCL1 240835Z 15006KT 18/09 A2985 RMK A01 T01810091  RH  056%=      5-min Rain = 0
KCL1 240836Z 15007KT 18/09 A2985 RMK A01 T01810091  RH  056%=      5-min Rain = 0
KCL1 240837Z 15007KT 18/09 A2985 RMK A01 T01810091  RH  056%=      5-min Rain = 0
KCL1 240838Z 16006KT 18/09 A2985 RMK A01 T01800091  RH  056%=      5-min Rain = 0
KCL1 240839Z 16007KT 18/09 A2985 RMK A01 T01790091  RH  056%=      5-min Rain = 0
KCL1 240840Z 16010KT 18/09 A2985 RMK A01 T01790089  RH  056%=      5-min Rain = 0
KCL1 240841Z 15006KT 18/09 A2985 RMK A01 T01820090  RH  055%=      5-min Rain = 0
KCL1 240842Z 14008KT 18/09 A2985 RMK A01 T01820089  RH  055%=      5-min Rain = 0
KCL1 240843Z 14008KT 18/09 A2985 RMK A01 T01820089  RH  055%=      5-min Rain = 0
KCL1 240844Z 16009KT 18/09 A2985 RMK A01 T01820089  RH  054%=      5-min Rain = 0
KCL1 240845Z 15010KT 18/09 A2985 RMK A01 T01830089  RH  054%=      5-min Rain = 0
KCL1 240846Z 16011KT 18/09 A2985 RMK A01 T01830088  RH  054%=      5-min Rain = 0
KCL1 240847Z 15012KT 18/09 A2985 RMK A01 T01840088  RH  053%=      5-min Rain = 0
KCL1 240848Z 15010KT 19/09 A2985 RMK A01 T01850088  RH  053%=      5-min Rain = 0
KCL1 240849Z 15006KT 19/09 A2985 RMK A01 T01860088  RH  053%=      5-min Rain = 0
KCL1 240850Z 16006KT 19/09 A2985 RMK A01 T01860089  RH  053%=      5-min Rain = 0
KCL1 240851Z 16010KT 19/09 A2985 RMK A01 T01850088  RH  053%=      5-min Rain = 0
KCL1 240852Z 15007KT 18/09 A2985 RMK A01 T01840088  RH  053%=      5-min Rain = 0
KCL1 240853Z 15009KT 18/09 A2985 RMK A01 T01840088  RH  053%=      5-min Rain = 0
KCL1 240854Z 16007KT 19/09 A2985 RMK A01 T01850088  RH  053%=      5-min Rain = 0
KCL1 240855Z 16009KT 18/09 A2985 RMK A01 T01840088  RH  053%=      5-min Rain = 0
KCL1 240856Z 15010G15KT 18/09 A2985 RMK A01 T01840088  RH  053%=      5-min Rain = 0
KCL1 240857Z 15007KT 19/09 A2985 RMK A01 T01850088  RH  053%=      5-min Rain = 0
KCL1 240858Z 15010KT 19/09 A2985 RMK A01 T01850088  RH  053%=      5-min Rain = 0
KCL1 240859Z 15009KT 19/09 A2985 RMK A01 T01850088  RH  053%=      5-min Rain = 0
KCL1 240900Z 15010KT 19/09 A2985 RMK A01 T01850088  RH  053%=      5-min Rain = 0
KCL1 240901Z 15011KT 19/09 A2985 RMK A01 T01850087  RH  053%=      5-min Rain = 0
KCL1 240902Z 15009KT 19/09 A2985 RMK A01 T01860088  RH  053%=      5-min Rain = 0
KCL1 240903Z 15008KT 19/09 A2985 RMK A01 T01860088  RH  053%=      5-min Rain = 0
KCL1 240904Z 15008KT 19/09 A2985 RMK A01 T01850088  RH  053%=      5-min Rain = 0
KCL1 240905Z 15009KT 18/09 A2985 RMK A01 T01840088  RH  053%=      5-min Rain = 0
KCL1 240906Z 15012KT 18/09 A2985 RMK A01 T01840087  RH  053%=      5-min Rain = 0
KCL1 240907Z 16009KT 19/09 A2985 RMK A01 T01850087  RH  053%=      5-min Rain = 0
KCL1 240908Z 15010KT 19/09 A2985 RMK A01 T01850088  RH  053%=      5-min Rain = 0
KCL1 240909Z 15011KT 19/09 A2985 RMK A01 T01850088  RH  053%=      5-min Rain = 0
KCL1 240910Z 16009KT 19/09 A2985 RMK A01 T01850087  RH  053%=      5-min Rain = 0
KCL1 240911Z 15012KT 19/09 A2985 RMK A01 T01850087  RH  053%=      5-min Rain = 0
KCL1 240912Z 16009G15KT 19/09 A2985 RMK A01 T01850087  RH  053%=      5-min Rain = 0
KCL1 240913Z 16012KT 19/09 A2985 RMK A01 T01850088  RH  053%=      5-min Rain = 0
KCL1 240914Z 17009KT 19/09 A2985 RMK A01 T01850088  RH  053%=      5-min Rain = 0
KCL1 240915Z 16009KT 19/09 A2985 RMK A01 T01850088  RH  053%=      5-min Rain = 0
KCL1 240916Z 16011KT 18/09 A2985 RMK A01 T01840088  RH  054%=      5-min Rain = 0
KCL1 240917Z 16007KT 18/09 A2985 RMK A01 T01840088  RH  054%=      5-min Rain = 0
KCL1 240918Z 16007KT 18/09 A2985 RMK A01 T01840089  RH  054%=      5-min Rain = 0
KCL1 240919Z 17008KT 18/09 A2985 RMK A01 T01830089  RH  054%=      5-min Rain = 0
KCL1 240920Z 17008KT 18/09 A2985 RMK A01 T01820089  RH  055%=      5-min Rain = 0
KCL1 240921Z 16008KT 18/09 A2985 RMK A01 T01810089  RH  055%=      5-min Rain = 0
KCL1 240922Z 17008KT 18/09 A2985 RMK A01 T01800089  RH  055%=      5-min Rain = 0
KCL1 240923Z 17010KT 18/09 A2985 RMK A01 T01800089  RH  055%=      5-min Rain = 0
KCL1 240924Z 17009KT 18/09 A2985 RMK A01 T01790089  RH  055%=      5-min Rain = 0
KCL1 240925Z 17010KT 18/09 A2985 RMK A01 T01800089  RH  055%=      5-min Rain = 0
KCL1 240926Z 16007KT 18/09 A2985 RMK A01 T01810089  RH  055%=      5-min Rain = 0
KCL1 240927Z 16008KT 18/09 A2985 RMK A01 T01800090  RH  055%=      5-min Rain = 0
KCL1 240928Z 18007KT 18/09 A2985 RMK A01 T01790090  RH  056%=      5-min Rain = 0
KCL1 240929Z 16007KT 18/09 A2985 RMK A01 T01790090  RH  056%=      5-min Rain = 0
KCL1 240930Z 17007KT 18/09 A2985 RMK A01 T01780090  RH  056%=      5-min Rain = 0
KCL1 240931Z 17010KT 18/09 A2985 RMK A01 T01770090  RH  056%=      5-min Rain = 0
KCL1 240932Z 17009KT 18/09 A2985 RMK A01 T01770090  RH  056%=      5-min Rain = 0
KCL1 240933Z 17007KT 18/09 A2985 RMK A01 T01780090  RH  056%=      5-min Rain = 0
KCL1 240934Z 17007KT 18/09 A2985 RMK A01 T01780090  RH  056%=      5-min Rain = 0
KCL1 240935Z 17007KT 18/09 A2985 RMK A01 T01780090  RH  056%=      5-min Rain = 0
KCL1 240936Z 16008KT 18/09 A2985 RMK A01 T01770090  RH  057%=      5-min Rain = 0
KCL1 240937Z 17007KT 18/09 A2985 RMK A01 T01770089  RH  057%=      5-min Rain = 0
KCL1 240938Z 17009KT 18/09 A2985 RMK A01 T01770089  RH  056%=      5-min Rain = 0
KCL1 240939Z 17008KT 18/09 A2985 RMK A01 T01780089  RH  056%=      5-min Rain = 0
KCL1 240940Z 17009KT 18/09 A2985 RMK A01 T01780090  RH  056%=      5-min Rain = 0
KCL1 240941Z 16008KT 18/09 A2985 RMK A01 T01780090  RH  056%=      5-min Rain = 0
KCL1 240942Z 16010KT 18/09 A2985 RMK A01 T01780090  RH  056%=      5-min Rain = 0
KCL1 240943Z 16008KT 18/09 A2985 RMK A01 T01780090  RH  056%=      5-min Rain = 0
KCL1 240944Z 17006KT 18/09 A2985 RMK A01 T01780090  RH  056%=      5-min Rain = 0
KCL1 240945Z 17006KT 18/09 A2985 RMK A01 T01770090  RH  057%=      5-min Rain = 0
KCL1 240946Z 18006KT 18/09 A2985 RMK A01 T01760090  RH  057%=      5-min Rain = 0
KCL1 240947Z 17006KT 18/09 A2985 RMK A01 T01760090  RH  057%=      5-min Rain = 0
KCL1 240948Z 17007KT 18/09 A2985 RMK A01 T01760090  RH  057%=      5-min Rain = 0
KCL1 240949Z 17007KT 18/09 A2985 RMK A01 T01750090  RH  057%=      5-min Rain = 0
KCL1 240950Z 16007KT 18/09 A2985 RMK A01 T01760090  RH  057%=      5-min Rain = 0
KCL1 240951Z 16008KT 18/09 A2985 RMK A01 T01760090  RH  057%=      5-min Rain = 0
KCL1 240952Z 16006KT 18/09 A2985 RMK A01 T01770090  RH  057%=      5-min Rain = 0
KCL1 240953Z 17007KT 18/09 A2985 RMK A01 T01780091  RH  057%=      5-min Rain = 0
KCL1 240954Z 17008KT 18/09 A2985 RMK A01 T01770091  RH  057%=      5-min Rain = 0
KCL1 240955Z 16007KT 18/09 A2985 RMK A01 T01770090  RH  057%=      5-min Rain = 0
KCL1 240956Z 17008KT 18/09 A2985 RMK A01 T01770090  RH  057%=      5-min Rain = 0
KCL1 240957Z 17007KT 18/09 A2985 RMK A01 T01770090  RH  057%=      5-min Rain = 0
KCL1 240958Z 16007KT 18/09 A2985 RMK A01 T01770090  RH  057%=      5-min Rain = 0
KCL1 240959Z 15007KT 18/09 A2985 RMK A01 T01770090  RH  057%=      5-min Rain = 0
KCL1 241000Z 17008KT 18/09 A2985 RMK A01 T01780091  RH  057%=      5-min Rain = 0
KCL1 241001Z 17008KT 18/09 A2985 RMK A01 T01780090  RH  056%=      5-min Rain = 0
KCL1 241002Z 17008KT 18/09 A2985 RMK A01 T01780090  RH  056%=      5-min Rain = 0
KCL1 241003Z 17008KT 18/09 A2985 RMK A01 T01790090  RH  056%=      5-min Rain = 0
KCL1 241004Z 17006KT 18/09 A2985 RMK A01 T01800090  RH  056%=      5-min Rain = 0
KCL1 241005Z 16007KT 18/09 A2985 RMK A01 T01800090  RH  056%=      5-min Rain = 0
KCL1 241006Z 17008KT 18/09 A2985 RMK A01 T01790090  RH  056%=      5-min Rain = 0
KCL1 241007Z 17007KT 18/09 A2985 RMK A01 T01790090  RH  056%=      5-min Rain = 0
KCL1 241008Z 16006KT 18/09 A2985 RMK A01 T01790091  RH  056%=      5-min Rain = 0
KCL1 241009Z 16006KT 18/09 A2985 RMK A01 T01780091  RH  057%=      5-min Rain = 0
KCL1 241010Z 16007KT 18/09 A2985 RMK A01 T01780091  RH  057%=      5-min Rain = 0
KCL1 241011Z 16008KT 18/09 A2985 RMK A01 T01770091  RH  057%=      5-min Rain = 0
KCL1 241012Z 16007KT 18/09 A2985 RMK A01 T01770091  RH  057%=      5-min Rain = 0
KCL1 241013Z 16006KT 18/09 A2985 RMK A01 T01770091  RH  057%=      5-min Rain = 0
KCL1 241014Z 17008KT 18/09 A2985 RMK A01 T01770091  RH  057%=      5-min Rain = 0
KCL1 241015Z 16007KT 18/09 A2985 RMK A01 T01760091  RH  057%=      5-min Rain = 0
KCL1 241016Z 15007KT 18/09 A2985 RMK A01 T01760090  RH  057%=      5-min Rain = 0
KCL1 241017Z 15007KT 18/09 A2985 RMK A01 T01760090  RH  057%=      5-min Rain = 0
KCL1 241018Z 16007KT 18/09 A2985 RMK A01 T01760091  RH  057%=      5-min Rain = 0
KCL1 241019Z 15007KT 18/09 A2985 RMK A01 T01760091  RH  057%=      5-min Rain = 0
KCL1 241020Z 15007KT 18/09 A2985 RMK A01 T01760091  RH  057%=      5-min Rain = 0
KCL1 241021Z 15009KT 18/09 A2985 RMK A01 T01760091  RH  057%=      5-min Rain = 0
KCL1 241022Z 15007KT 18/09 A2985 RMK A01 T01750090  RH  057%=      5-min Rain = 0
KCL1 241023Z 16009KT 18/09 A2985 RMK A01 T01750090  RH  057%=      5-min Rain = 0
KCL1 241024Z 16009KT 18/09 A2985 RMK A01 T01760090  RH  057%=      5-min Rain = 0
KCL1 241025Z 16007KT 18/09 A2985 RMK A01 T01750090  RH  057%=      5-min Rain = 0
KCL1 241026Z 15007KT 18/09 A2985 RMK A01 T01750090  RH  057%=      5-min Rain = 0
KCL1 241027Z 16008KT 18/09 A2984 RMK A01 T01750090  RH  057%=      5-min Rain = 0
KCL1 241028Z 16008KT 18/09 A2985 RMK A01 T01750090  RH  057%=      5-min Rain = 0
KCL1 241029Z 16008KT 18/09 A2985 RMK A01 T01750089  RH  057%=      5-min Rain = 0
KCL1 241030Z 16009KT 18/09 A2985 RMK A01 T01760089  RH  057%=      5-min Rain = 0
KCL1 241031Z 16009KT 18/09 A2985 RMK A01 T01760089  RH  057%=      5-min Rain = 0
KCL1 241032Z 16009KT 18/09 A2985 RMK A01 T01770090  RH  057%=      5-min Rain = 0
KCL1 241033Z 16007KT 18/09 A2985 RMK A01 T01770089  RH  056%=      5-min Rain = 0
KCL1 241034Z 16007KT 18/09 A2985 RMK A01 T01760089  RH  057%=      5-min Rain = 0
KCL1 241035Z 17009KT 18/09 A2985 RMK A01 T01760090  RH  057%=      5-min Rain = 0
KCL1 241036Z 16009KT 18/09 A2985 RMK A01 T01750090  RH  057%=      5-min Rain = 0
KCL1 241037Z 16008KT 18/09 A2985 RMK A01 T01750090  RH  057%=      5-min Rain = 0
KCL1 241038Z 16009KT 18/09 A2985 RMK A01 T01750089  RH  057%=      5-min Rain = 0
KCL1 241039Z 16010KT 18/09 A2985 RMK A01 T01750089  RH  057%=      5-min Rain = 0
KCL1 241040Z 16007KT 18/09 A2985 RMK A01 T01750089  RH  057%=      5-min Rain = 0
KCL1 241041Z 18006KT 18/09 A2985 RMK A01 T01750089  RH  057%=      5-min Rain = 0
KCL1 241042Z 18007KT 17/09 A2985 RMK A01 T01740089  RH  057%=      5-min Rain = 0
KCL1 241043Z 19007KT 17/09 A2985 RMK A01 T01740089  RH  057%=      5-min Rain = 0
KCL1 241044Z 19008KT 17/09 A2985 RMK A01 T01730089  RH  058%=      5-min Rain = 0
KCL1 241045Z 18007KT 17/09 A2985 RMK A01 T01730089  RH  058%=      5-min Rain = 0
KCL1 241046Z 18007KT 17/09 A2985 RMK A01 T01730090  RH  058%=      5-min Rain = 0
KCL1 241047Z 17006KT 17/09 A2985 RMK A01 T01730090  RH  058%=      5-min Rain = 0
KCL1 241048Z 16008KT 17/09 A2985 RMK A01 T01720090  RH  058%=      5-min Rain = 0
KCL1 241049Z 17008KT 17/09 A2985 RMK A01 T01720090  RH  059%=      5-min Rain = 0
KCL1 241050Z 18008KT 17/09 A2985 RMK A01 T01720090  RH  059%=      5-min Rain = 0
KCL1 241051Z 18007KT 17/09 A2985 RMK A01 T01720090  RH  059%=      5-min Rain = 0
KCL1 241052Z 18007KT 17/09 A2985 RMK A01 T01710090  RH  059%=      5-min Rain = 0
KCL1 241053Z 17007KT 17/09 A2985 RMK A01 T01710091  RH  059%=      5-min Rain = 0
KCL1 241054Z 17008KT 17/09 A2985 RMK A01 T01710091  RH  059%=      5-min Rain = 0
KCL1 241055Z 17006KT 17/09 A2985 RMK A01 T01710091  RH  059%=      5-min Rain = 0
KCL1 241056Z 16008KT 17/09 A2985 RMK A01 T01710091  RH  059%=      5-min Rain = 0
KCL1 241057Z 16010KT 17/09 A2985 RMK A01 T01710091  RH  059%=      5-min Rain = 0
KCL1 241058Z 17009KT 17/09 A2985 RMK A01 T01710091  RH  059%=      5-min Rain = 0
KCL1 241059Z 17007KT 17/09 A2985 RMK A01 T01710091  RH  059%=      5-min Rain = 0
KCL1 241100Z 16007KT 17/09 A2985 RMK A01 T01710092  RH  059%=      5-min Rain = 0
KCL1 241101Z 17008KT 17/09 A2985 RMK A01 T01710092  RH  060%=      5-min Rain = 0
KCL1 241102Z 17008KT 17/09 A2985 RMK A01 T01700092  RH  060%=      5-min Rain = 0
KCL1 241103Z 17008KT 17/09 A2985 RMK A01 T01710092  RH  060%=      5-min Rain = 0
KCL1 241104Z 17007KT 17/09 A2985 RMK A01 T01710092  RH  060%=      5-min Rain = 0
KCL1 241105Z 17006KT 17/09 A2985 RMK A01 T01710092  RH  060%=      5-min Rain = 0
KCL1 241106Z 16007KT 17/09 A2985 RMK A01 T01710093  RH  060%=      5-min Rain = 0
KCL1 241107Z 16007KT 17/09 A2985 RMK A01 T01710093  RH  060%=      5-min Rain = 0
KCL1 241108Z 17008KT 17/09 A2985 RMK A01 T01700093  RH  060%=      5-min Rain = 0
KCL1 241109Z 16007KT 17/09 A2985 RMK A01 T01690092  RH  060%=      5-min Rain = 0
KCL1 241110Z 16009KT 17/09 A2985 RMK A01 T01700093  RH  061%=      5-min Rain = 0
KCL1 241111Z 16008KT 17/09 A2985 RMK A01 T01690093  RH  061%=      5-min Rain = 0
KCL1 241112Z 16008KT 17/09 A2985 RMK A01 T01690093  RH  061%=      5-min Rain = 0
KCL1 241113Z 16008KT 17/09 A2985 RMK A01 T01690093  RH  061%=      5-min Rain = 0
KCL1 241114Z 16008KT 17/09 A2985 RMK A01 T01690094  RH  061%=      5-min Rain = 0
KCL1 241115Z 15009KT 17/09 A2985 RMK A01 T01670093  RH  062%=      5-min Rain = 0
KCL1 241116Z 15009KT 17/09 A2985 RMK A01 T01670094  RH  062%=      5-min Rain = 0
KCL1 241117Z 15010KT 17/09 A2985 RMK A01 T01660094  RH  062%=      5-min Rain = 0
KCL1 241118Z 15009KT 17/09 A2985 RMK A01 T01660094  RH  063%=      5-min Rain = 0
KCL1 241119Z 15009KT 17/10 A2985 RMK A01 T01660095  RH  063%=      5-min Rain = 0
KCL1 241120Z 16010KT 17/10 A2985 RMK A01 T01660096  RH  063%=      5-min Rain = 0
KCL1 241121Z 16009KT 17/10 A2985 RMK A01 T01670096  RH  063%=      5-min Rain = 0
KCL1 241122Z 16011KT 17/10 A2985 RMK A01 T01660097  RH  064%=      5-min Rain = 0
KCL1 241123Z 17010KT 17/10 A2985 RMK A01 T01660098  RH  064%=      5-min Rain = 0
KCL1 241124Z 17009KT 17/10 A2985 RMK A01 T01660098  RH  064%=      5-min Rain = 0
KCL1 241125Z 16009KT 17/10 A2985 RMK A01 T01660099  RH  065%=      5-min Rain = 0
KCL1 241126Z 16008KT 17/10 A2985 RMK A01 T01660099  RH  065%=      5-min Rain = 0
KCL1 241127Z 16009KT 17/10 A2985 RMK A01 T01660099  RH  065%=      5-min Rain = 0
KCL1 241128Z 16009KT 17/10 A2985 RMK A01 T01650099  RH  065%=      5-min Rain = 0
KCL1 241129Z 16010KT 17/10 A2985 RMK A01 T01650100  RH  065%=      5-min Rain = 0
KCL1 241130Z 16010KT 17/10 A2985 RMK A01 T01650100  RH  066%=      5-min Rain = 0
KCL1 241131Z 16010KT 16/10 A2985 RMK A01 T01640101  RH  066%=      5-min Rain = 0
KCL1 241132Z 16008KT 16/10 A2985 RMK A01 T01630101  RH  066%=      5-min Rain = 0
KCL1 241133Z 17010KT 16/10 A2985 RMK A01 T01640101  RH  066%=      5-min Rain = 0
KCL1 241134Z 17009KT 16/10 A2985 RMK A01 T01640102  RH  066%=      5-min Rain = 0
KCL1 241135Z 17009KT 16/10 A2986 RMK A01 T01640102  RH  067%=      5-min Rain = 0
KCL1 241136Z 17010KT 16/10 A2986 RMK A01 T01630102  RH  067%=      5-min Rain = 0
KCL1 241137Z 17008KT 16/10 A2986 RMK A01 T01630102  RH  067%=      5-min Rain = 0
KCL1 241138Z 17010KT 16/10 A2986 RMK A01 T01630102  RH  067%=      5-min Rain = 0
KCL1 241139Z 18010KT 16/10 A2986 RMK A01 T01630102  RH  067%=      5-min Rain = 0
KCL1 241140Z 17008KT 16/10 A2986 RMK A01 T01630103  RH  068%=      5-min Rain = 0
KCL1 241141Z 17010KT 16/10 A2986 RMK A01 T01620103  RH  068%=      5-min Rain = 0
KCL1 241142Z 16009KT 16/10 A2986 RMK A01 T01620103  RH  068%=      5-min Rain = 0
KCL1 241143Z 18011KT 16/10 A2986 RMK A01 T01620103  RH  068%=      5-min Rain = 0
KCL1 241144Z 17008KT 16/10 A2986 RMK A01 T01620103  RH  068%=      5-min Rain = 0
KCL1 241145Z 16007KT 16/10 A2986 RMK A01 T01620104  RH  068%=      5-min Rain = 0
KCL1 241146Z 17009KT 16/10 A2986 RMK A01 T01610104  RH  069%=      5-min Rain = 0
KCL1 241147Z 16009KT 16/10 A2986 RMK A01 T01600104  RH  069%=      5-min Rain = 0
KCL1 241148Z 17010KT 16/10 A2986 RMK A01 T01600104  RH  069%=      5-min Rain = 0
KCL1 241149Z 18009KT 16/10 A2986 RMK A01 T01600104  RH  069%=      5-min Rain = 0
KCL1 241150Z 17008KT 16/10 A2986 RMK A01 T01610104  RH  069%=      5-min Rain = 0
KCL1 241151Z 17010KT 16/10 A2986 RMK A01 T01610104  RH  069%=      5-min Rain = 0
KCL1 241152Z 17008KT 16/10 A2986 RMK A01 T01610104  RH  069%=      5-min Rain = 0
KCL1 241153Z 16008KT 16/10 A2986 RMK A01 T01610104  RH  069%=      5-min Rain = 0
KCL1 241154Z 16009KT 16/11 A2986 RMK A01 T01610105  RH  069%=      5-min Rain = 0
KCL1 241155Z 17009KT 16/11 A2986 RMK A01 T01600105  RH  070%=      5-min Rain = 0
KCL1 241156Z 17010KT 16/11 A2986 RMK A01 T01600105  RH  070%=      5-min Rain = 0
KCL1 241157Z 17010KT 16/11 A2986 RMK A01 T01600105  RH  070%=      5-min Rain = 0
KCL1 241158Z 17010KT 16/11 A2986 RMK A01 T01610105  RH  069%=      5-min Rain = 0
KCL1 241159Z 16011KT 16/11 A2985 RMK A01 T01610105  RH  069%=      5-min Rain = 0
KCL1 241200Z 16011KT 16/11 A2986 RMK A01 T01620105  RH  069%=      5-min Rain = 0
KCL1 241201Z 16011KT 16/11 A2986 RMK A01 T01620106  RH  069%=      5-min Rain = 0
KCL1 241202Z 16010KT 16/11 A2986 RMK A01 T01620106  RH  069%=      5-min Rain = 0
KCL1 241203Z 16009KT 16/11 A2985 RMK A01 T01620106  RH  069%=      5-min Rain = 0
KCL1 241204Z 16009KT 16/11 A2985 RMK A01 T01620106  RH  069%=      5-min Rain = 0
KCL1 241205Z 16011KT 16/11 A2985 RMK A01 T01620106  RH  069%=      5-min Rain = 0
KCL1 241206Z 17011KT 16/11 A2985 RMK A01 T01620106  RH  069%=      5-min Rain = 0
KCL1 241207Z 17010KT 16/11 A2985 RMK A01 T01630107  RH  069%=      5-min Rain = 0
KCL1 241208Z 18009G14KT 16/11 A2985 RMK A01 T01630107  RH  069%=      5-min Rain = 0
KCL1 241209Z 16009KT 16/11 A2985 RMK A01 T01640108  RH  069%=      5-min Rain = 0
KCL1 241210Z 16010KT 17/11 A2985 RMK A01 T01650108  RH  069%=      5-min Rain = 0
KCL1 241211Z 17011KT 17/11 A2986 RMK A01 T01650108  RH  069%=      5-min Rain = 0
KCL1 241212Z 16010KT 17/11 A2986 RMK A01 T01650108  RH  069%=      5-min Rain = 0
KCL1 241213Z 17009KT 17/11 A2986 RMK A01 T01650108  RH  069%=      5-min Rain = 0
KCL1 241214Z 17008KT 16/11 A2986 RMK A01 T01640109  RH  070%=      5-min Rain = 0
KCL1 241215Z 17010KT 16/11 A2986 RMK A01 T01640109  RH  070%=      5-min Rain = 0
KCL1 241216Z 17010KT 16/11 A2986 RMK A01 T01630109  RH  070%=      5-min Rain = 0
KCL1 241217Z 16007KT 16/11 A2985 RMK A01 T01640109  RH  070%=      5-min Rain = 0
KCL1 241218Z 17009KT 16/11 A2985 RMK A01 T01640109  RH  070%=      5-min Rain = 0
KCL1 241219Z 17009KT 16/11 A2985 RMK A01 T01640110  RH  070%=      5-min Rain = 0
KCL1 241220Z 17011KT 17/11 A2985 RMK A01 T01650110  RH  070%=      5-min Rain = 0
KCL1 241221Z 17012G17KT 17/11 A2985 RMK A01 T01660110  RH  070%=      5-min Rain = 0
KCL1 241222Z 17012G17KT 17/11 A2985 RMK A01 T01670111  RH  069%=      5-min Rain = 0
KCL1 241223Z 17009KT 17/11 A2985 RMK A01 T01680111  RH  069%=      5-min Rain = 0
KCL1 241224Z 17010KT 17/11 A2985 RMK A01 T01690111  RH  069%=      5-min Rain = 0
KCL1 241225Z 17009KT 17/11 A2985 RMK A01 T01690111  RH  069%=      5-min Rain = 0
KCL1 241226Z 16007KT 17/11 A2985 RMK A01 T01690112  RH  069%=      5-min Rain = 0
KCL1 241227Z 17011KT 17/11 A2985 RMK A01 T01690112  RH  069%=      5-min Rain = 0
KCL1 241228Z 17010KT 17/11 A2985 RMK A01 T01700112  RH  069%=      5-min Rain = 0
KCL1 241229Z 16011KT 17/11 A2985 RMK A01 T01710112  RH  068%=      5-min Rain = 0
KCL1 241230Z 16011KT 17/11 A2985 RMK A01 T01710112  RH  068%=      5-min Rain = 0
KCL1 241231Z 16011KT 17/11 A2985 RMK A01 T01710112  RH  068%=      5-min Rain = 0
KCL1 241232Z 16011KT 17/11 A2985 RMK A01 T01710112  RH  068%=      5-min Rain = 0
KCL1 241233Z 16011KT 17/11 A2985 RMK A01 T01710113  RH  068%=      5-min Rain = 0
KCL1 241234Z 15008KT 17/11 A2985 RMK A01 T01710113  RH  068%=      5-min Rain = 0
KCL1 241235Z 16009KT 17/11 A2985 RMK A01 T01710113  RH  069%=      5-min Rain = 0
KCL1 241236Z 15011KT 17/11 A2985 RMK A01 T01710113  RH  069%=      5-min Rain = 0
KCL1 241237Z 16011KT 17/11 A2985 RMK A01 T01710113  RH  069%=      5-min Rain = 0
KCL1 241238Z 15011KT 17/11 A2985 RMK A01 T01710113  RH  069%=      5-min Rain = 0
KCL1 241239Z 16011KT 17/11 A2985 RMK A01 T01710113  RH  069%=      5-min Rain = 0
KCL1 241240Z 17010KT 17/11 A2985 RMK A01 T01710113  RH  069%=      5-min Rain = 0
KCL1 241241Z 17007KT 17/11 A2985 RMK A01 T01710114  RH  069%=      5-min Rain = 0
KCL1 241242Z 16007KT 17/11 A2985 RMK A01 T01710114  RH  069%=      5-min Rain = 0
KCL1 241243Z 16007KT 17/12 A2985 RMK A01 T01710115  RH  069%=      5-min Rain = 0
KCL1 241244Z 16008KT 17/12 A2985 RMK A01 T01720115  RH  069%=      5-min Rain = 0
KCL1 241245Z 16008KT 17/12 A2985 RMK A01 T01730115  RH  069%=      5-min Rain = 0
KCL1 241246Z 16008KT 17/12 A2985 RMK A01 T01730115  RH  069%=      5-min Rain = 0
KCL1 241247Z 16008KT 17/12 A2985 RMK A01 T01730116  RH  069%=      5-min Rain = 0
KCL1 241248Z 16008KT 17/12 A2985 RMK A01 T01730115  RH  069%=      5-min Rain = 0
KCL1 241249Z 15009KT 17/12 A2985 RMK A01 T01720115  RH  069%=      5-min Rain = 0
KCL1 241250Z 15008KT 17/12 A2985 RMK A01 T01710115  RH  069%=      5-min Rain = 0
KCL1 241251Z 15009KT 17/12 A2985 RMK A01 T01710115  RH  069%=      5-min Rain = 0
KCL1 241252Z 14008KT 17/12 A2985 RMK A01 T01710115  RH  069%=      5-min Rain = 0
KCL1 241253Z 15007KT 17/12 A2985 RMK A01 T01720115  RH  069%=      5-min Rain = 0
KCL1 241254Z 15007KT 17/12 A2985 RMK A01 T01730115  RH  069%=      5-min Rain = 0
KCL1 241255Z 15007KT 17/12 A2985 RMK A01 T01740115  RH  068%=      5-min Rain = 0
KCL1 241256Z 15006KT 18/12 A2985 RMK A01 T01750116  RH  068%=      5-min Rain = 0
KCL1 241257Z 17008KT 18/12 A2985 RMK A01 T01760116  RH  068%=      5-min Rain = 0
KCL1 241258Z 16005KT 18/12 A2985 RMK A01 T01770116  RH  068%=      5-min Rain = 0
KCL1 241259Z 15004KT 18/12 A2985 RMK A01 T01770116  RH  068%=      5-min Rain = 0
KCL1 241300Z 15006KT 18/12 A2985 RMK A01 T01780117  RH  068%=      5-min Rain = 0
KCL1 241301Z 16007KT 18/12 A2985 RMK A01 T01790117  RH  067%=      5-min Rain = 0
KCL1 241302Z 17007KT 18/12 A2985 RMK A01 T01800116  RH  066%=      5-min Rain = 0
KCL1 241303Z 17005KT 18/12 A2985 RMK A01 T01800116  RH  066%=      5-min Rain = 0
KCL1 241304Z 16004KT 18/12 A2985 RMK A01 T01800116  RH  066%=      5-min Rain = 0
KCL1 241305Z 17008KT 18/12 A2985 RMK A01 T01810117  RH  066%=      5-min Rain = 0
KCL1 241306Z 16006KT 18/12 A2985 RMK A01 T01810116  RH  066%=      5-min Rain = 0
KCL1 241307Z 15006KT 18/12 A2985 RMK A01 T01820118  RH  066%=      5-min Rain = 0
KCL1 241308Z 15008KT 18/12 A2985 RMK A01 T01830117  RH  065%=      5-min Rain = 0
KCL1 241309Z 16008KT 18/12 A2985 RMK A01 T01830117  RH  065%=      5-min Rain = 0
KCL1 241310Z 15008KT 18/12 A2985 RMK A01 T01830117  RH  065%=      5-min Rain = 0
KCL1 241311Z 14008KT 18/12 A2985 RMK A01 T01830117  RH  065%=      5-min Rain = 0
KCL1 241312Z 15009KT 18/12 A2985 RMK A01 T01840117  RH  065%=      5-min Rain = 0
KCL1 241313Z 14009KT 19/12 A2985 RMK A01 T01850118  RH  065%=      5-min Rain = 0
KCL1 241314Z 15009KT 19/12 A2984 RMK A01 T01860118  RH  064%=      5-min Rain = 0
KCL1 241315Z 13007KT 19/12 A2984 RMK A01 T01870117  RH  064%=      5-min Rain = 0
KCL1 241316Z 14009KT 19/12 A2984 RMK A01 T01870118  RH  064%=      5-min Rain = 0
KCL1 241317Z 14009KT 19/12 A2984 RMK A01 T01880118  RH  064%=      5-min Rain = 0
KCL1 241318Z 12009KT 19/12 A2984 RMK A01 T01880118  RH  064%=      5-min Rain = 0
KCL1 241319Z 13009KT 19/12 A2984 RMK A01 T01890119  RH  064%=      5-min Rain = 0
KCL1 241320Z 13010KT 19/12 A2984 RMK A01 T01900119  RH  063%=      5-min Rain = 0
KCL1 241321Z 14011KT 19/12 A2984 RMK A01 T01910119  RH  063%=      5-min Rain = 0
KCL1 241322Z 13011KT 19/12 A2984 RMK A01 T01920118  RH  062%=      5-min Rain = 0
KCL1 241323Z 13009KT 19/12 A2984 RMK A01 T01920118  RH  062%=      5-min Rain = 0
KCL1 241324Z 13008KT 19/12 A2984 RMK A01 T01930118  RH  062%=      5-min Rain = 0
KCL1 241325Z 14007KT 19/12 A2984 RMK A01 T01930118  RH  062%=      5-min Rain = 0
KCL1 241326Z 13009KT 19/12 A2984 RMK A01 T01940119  RH  062%=      5-min Rain = 0
KCL1 241327Z 13008KT 20/12 A2984 RMK A01 T01950118  RH  061%=      5-min Rain = 0
KCL1 241328Z 14008KT 20/12 A2984 RMK A01 T01960118  RH  061%=      5-min Rain = 0
KCL1 241329Z 13008KT 20/12 A2984 RMK A01 T01960119  RH  061%=      5-min Rain = 0
KCL1 241330Z 13005KT 20/12 A2984 RMK A01 T01960119  RH  061%=      5-min Rain = 0
KCL1 241331Z 14007KT 20/12 A2984 RMK A01 T01980121  RH  061%=      5-min Rain = 0
KCL1 241332Z 13008KT 20/12 A2984 RMK A01 T02000120  RH  060%=      5-min Rain = 0
KCL1 241333Z 14006KT 20/12 A2984 RMK A01 T02000119  RH  060%=      5-min Rain = 0
KCL1 241334Z 14005KT 20/12 A2984 RMK A01 T02000121  RH  060%=      5-min Rain = 0
KCL1 241335Z 14007KT 20/12 A2984 RMK A01 T02010120  RH  060%=      5-min Rain = 0
KCL1 241336Z 14009KT 20/12 A2984 RMK A01 T02010119  RH  059%=      5-min Rain = 0
KCL1 241337Z 15007KT 20/12 A2984 RMK A01 T02010119  RH  059%=      5-min Rain = 0
KCL1 241338Z 15006KT 20/12 A2984 RMK A01 T02010120  RH  060%=      5-min Rain = 0
KCL1 241339Z 15008KT 20/12 A2984 RMK A01 T02030120  RH  059%=      5-min Rain = 0
KCL1 241340Z 17008KT 20/12 A2984 RMK A01 T02030119  RH  058%=      5-min Rain = 0
KCL1 241341Z 16005KT 20/12 A2984 RMK A01 T02030120  RH  059%=      5-min Rain = 0
KCL1 241342Z 15006KT 20/12 A2984 RMK A01 T02040120  RH  058%=      5-min Rain = 0
KCL1 241343Z 15005KT 20/12 A2984 RMK A01 T02040120  RH  058%=      5-min Rain = 0
KCL1 241344Z 18005KT 21/12 A2984 RMK A01 T02060120  RH  058%=      5-min Rain = 0
KCL1 241345Z 17006KT 21/12 A2984 RMK A01 T02060119  RH  057%=      5-min Rain = 0
KCL1 241346Z 16008KT 21/12 A2984 RMK A01 T02060119  RH  057%=      5-min Rain = 0
KCL1 241347Z 18007KT 21/12 A2984 RMK A01 T02070119  RH  057%=      5-min Rain = 0
KCL1 241348Z 18007KT 21/12 A2984 RMK A01 T02080117  RH  056%=      5-min Rain = 0
KCL1 241349Z 17006KT 21/12 A2984 RMK A01 T02080118  RH  056%=      5-min Rain = 0
KCL1 241350Z 17008KT 21/12 A2984 RMK A01 T02090119  RH  056%=      5-min Rain = 0
KCL1 241351Z 16008G13KT 21/12 A2984 RMK A01 T02090117  RH  056%=      5-min Rain = 0
KCL1 241352Z 16009KT 21/12 A2984 RMK A01 T02090118  RH  056%=      5-min Rain = 0
KCL1 241353Z 18010KT 21/12 A2984 RMK A01 T02090117  RH  056%=      5-min Rain = 0
KCL1 241354Z 19012G19KT 21/12 A2984 RMK A01 T02090115  RH  055%=      5-min Rain = 0
KCL1 241355Z 16008KT 21/12 A2984 RMK A01 T02090118  RH  056%=      5-min Rain = 0
KCL1 241356Z 16010KT 21/12 A2984 RMK A01 T02090116  RH  055%=      5-min Rain = 0
KCL1 241357Z 17009KT 21/12 A2984 RMK A01 T02100118  RH  056%=      5-min Rain = 0
KCL1 241358Z 17011G16KT 21/12 A2984 RMK A01 T02100117  RH  055%=      5-min Rain = 0
KCL1 241359Z 18010KT 21/12 A2983 RMK A01 T02110117  RH  055%=      5-min Rain = 0
KCL1 241400Z 17008KT 21/12 A2984 RMK A01 T02110117  RH  055%=      5-min Rain = 0
KCL1 241401Z 16008KT 21/12 A2984 RMK A01 T02110118  RH  055%=      5-min Rain = 0
KCL1 241402Z 16006KT 21/12 A2984 RMK A01 T02120118  RH  055%=      5-min Rain = 0
KCL1 241403Z 15009KT 21/12 A2984 RMK A01 T02120119  RH  055%=      5-min Rain = 0
KCL1 241404Z 15009KT 21/12 A2984 RMK A01 T02130118  RH  055%=      5-min Rain = 0
KCL1 241405Z 16010KT 21/12 A2984 RMK A01 T02120118  RH  055%=      5-min Rain = 0
KCL1 241406Z 18011KT 21/12 A2984 RMK A01 T02120118  RH  055%=      5-min Rain = 0
KCL1 241407Z 18009KT 21/12 A2984 RMK A01 T02120117  RH  055%=      5-min Rain = 0
KCL1 241408Z 16009KT 21/12 A2984 RMK A01 T02130119  RH  055%=      5-min Rain = 0
KCL1 241409Z 16007KT 21/12 A2983 RMK A01 T02120119  RH  055%=      5-min Rain = 0
KCL1 241410Z 15008KT 21/12 A2983 RMK A01 T02130119  RH  055%=      5-min Rain = 0
KCL1 241411Z 16006KT 21/12 A2983 RMK A01 T02130120  RH  055%=      5-min Rain = 0
KCL1 241412Z 15012KT 21/12 A2983 RMK A01 T02140119  RH  055%=      5-min Rain = 0
KCL1 241413Z 15010KT 21/12 A2983 RMK A01 T02140119  RH  054%=      5-min Rain = 0
KCL1 241414Z 15012KT 21/12 A2983 RMK A01 T02140119  RH  054%=      5-min Rain = 0
KCL1 241415Z 16011KT 21/12 A2983 RMK A01 T02140118  RH  054%=      5-min Rain = 0
KCL1 241416Z 17011KT 22/12 A2983 RMK A01 T02150119  RH  054%=      5-min Rain = 0
KCL1 241417Z 18012KT 22/12 A2983 RMK A01 T02150119  RH  054%=      5-min Rain = 0
KCL1 241418Z 16012G19KT 22/12 A2983 RMK A01 T02170119  RH  054%=      5-min Rain = 0
KCL1 241419Z 17013KT 22/12 A2984 RMK A01 T02170119  RH  053%=      5-min Rain = 0
KCL1 241420Z 17012KT 22/12 A2984 RMK A01 T02180119  RH  053%=      5-min Rain = 0
KCL1 241421Z 16012KT 22/12 A2984 RMK A01 T02190119  RH  053%=      5-min Rain = 0
KCL1 241422Z 18010KT 22/12 A2984 RMK A01 T02190119  RH  053%=      5-min Rain = 0
KCL1 241423Z 17012G19KT 22/12 A2984 RMK A01 T02190119  RH  053%=      5-min Rain = 0
KCL1 241424Z 17011G17KT 22/12 A2984 RMK A01 T02200119  RH  053%=      5-min Rain = 0
KCL1 241425Z 18014G19KT 22/12 A2984 RMK A01 T02200118  RH  053%=      5-min Rain = 0
KCL1 241426Z 17011KT 22/12 A2984 RMK A01 T02200118  RH  053%=      5-min Rain = 0
KCL1 241427Z 17011KT 22/12 A2984 RMK A01 T02210120  RH  053%=      5-min Rain = 0
KCL1 241428Z 17013KT 22/12 A2984 RMK A01 T02230121  RH  052%=      5-min Rain = 0
KCL1 241429Z 17012KT 22/12 A2984 RMK A01 T02240119  RH  051%=      5-min Rain = 0
KCL1 241430Z 18009KT 22/12 A2984 RMK A01 T02240120  RH  052%=      5-min Rain = 0
KCL1 241431Z 18011KT 23/12 A2984 RMK A01 T02260122  RH  052%=      5-min Rain = 0
KCL1 241432Z 18011KT 23/12 A2984 RMK A01 T02280121  RH  051%=      5-min Rain = 0
KCL1 241433Z 18012KT 23/12 A2984 RMK A01 T02280122  RH  051%=      5-min Rain = 0
KCL1 241434Z 18012KT 23/12 A2984 RMK A01 T02280120  RH  051%=      5-min Rain = 0
KCL1 241435Z 17012KT 23/12 A2984 RMK A01 T02270121  RH  051%=      5-min Rain = 0
KCL1 241436Z 17013KT 23/12 A2983 RMK A01 T02280122  RH  051%=      5-min Rain = 0
KCL1 241437Z 17011KT 23/12 A2983 RMK A01 T02290122  RH  051%=      5-min Rain = 0
KCL1 241438Z 18010KT 23/12 A2983 RMK A01 T02300122  RH  051%=      5-min Rain = 0
KCL1 241439Z 19009KT 23/12 A2983 RMK A01 T02310123  RH  050%=      5-min Rain = 0
KCL1 241440Z 18010KT 23/12 A2984 RMK A01 T02330124  RH  050%=      5-min Rain = 0
KCL1 241441Z 18013KT 23/12 A2983 RMK A01 T02340123  RH  050%=      5-min Rain = 0
KCL1 241442Z 17011KT 23/12 A2983 RMK A01 T02330122  RH  050%=      5-min Rain = 0
KCL1 241443Z 17012KT 23/12 A2983 RMK A01 T02320123  RH  050%=      5-min Rain = 0
KCL1 241444Z 17013KT 23/12 A2983 RMK A01 T02330123  RH  050%=      5-min Rain = 0
KCL1 241445Z 16013KT 23/12 A2983 RMK A01 T02340124  RH  050%=      5-min Rain = 0
KCL1 241446Z 17013KT 23/12 A2983 RMK A01 T02340124  RH  050%=      5-min Rain = 0
KCL1 241447Z 18011G18KT 23/12 A2983 RMK A01 T02340123  RH  050%=      5-min Rain = 0
KCL1 241448Z 20009KT 23/12 A2983 RMK A01 T02340124  RH  050%=      5-min Rain = 0
KCL1 241449Z 18009KT 24/13 A2983 RMK A01 T02350125  RH  050%=      5-min Rain = 0
KCL1 241450Z 19010KT 24/13 A2983 RMK A01 T02360125  RH  050%=      5-min Rain = 0
KCL1 241451Z 20008KT 24/12 A2983 RMK A01 T02360124  RH  049%=      5-min Rain = 0
KCL1 241452Z 19008KT 24/12 A2983 RMK A01 T02350124  RH  050%=      5-min Rain = 0
KCL1 241453Z 20009KT 24/13 A2983 RMK A01 T02360125  RH  050%=      5-min Rain = 0
KCL1 241454Z 20010KT 24/13 A2983 RMK A01 T02380125  RH  049%=      5-min Rain = 0
KCL1 241455Z 18009KT 24/13 A2983 RMK A01 T02390126  RH  049%=      5-min Rain = 0
KCL1 241456Z 17010KT 24/13 A2983 RMK A01 T02390126  RH  049%=      5-min Rain = 0
KCL1 241457Z 20007KT 24/13 A2983 RMK A01 T02400127  RH  049%=      5-min Rain = 0
KCL1 241458Z 19017G22KT 24/13 A2983 RMK A01 T02410125  RH  048%=      5-min Rain = 0
KCL1 241459Z 20015KT 24/12 A2983 RMK A01 T02380123  RH  048%=      5-min Rain = 0
KCL1 241500Z 18011G16KT 23/12 A2983 RMK A01 T02340123  RH  050%=      5-min Rain = 0
KCL1 241501Z 19009KT 23/13 A2983 RMK A01 T02340125  RH  051%=      5-min Rain = 0
KCL1 241502Z 20010KT 24/13 A2983 RMK A01 T02370126  RH  050%=      5-min Rain = 0
KCL1 241503Z 18012KT 24/12 A2983 RMK A01 T02390124  RH  049%=      5-min Rain = 0
KCL1 241504Z 17009KT 24/13 A2983 RMK A01 T02380125  RH  049%=      5-min Rain = 0
KCL1 241505Z 19008KT 24/13 A2983 RMK A01 T02370125  RH  049%=      5-min Rain = 0
KCL1 241506Z 18013KT 24/13 A2983 RMK A01 T02380126  RH  050%=      5-min Rain = 0
KCL1 241507Z 20013KT 24/13 A2983 RMK A01 T02400126  RH  049%=      5-min Rain = 0
KCL1 241508Z 19010KT 24/12 A2984 RMK A01 T02380124  RH  049%=      5-min Rain = 0
KCL1 241509Z 19013G19KT 24/13 A2984 RMK A01 T02370125  RH  050%=      5-min Rain = 0
KCL1 241510Z 19014G19KT 24/12 A2984 RMK A01 T02380124  RH  049%=      5-min Rain = 0
KCL1 241511Z 20010G15KT 24/12 A2984 RMK A01 T02370124  RH  049%=      5-min Rain = 0
KCL1 241512Z 20008G14KT 24/13 A2984 RMK A01 T02370125  RH  049%=      5-min Rain = 0
KCL1 241513Z 19009KT 24/13 A2984 RMK A01 T02390126  RH  049%=      5-min Rain = 0
KCL1 241514Z 18012KT 24/13 A2984 RMK A01 T02400126  RH  049%=      5-min Rain = 0
KCL1 241515Z 19012KT 24/13 A2984 RMK A01 T02410125  RH  048%=      5-min Rain = 0
KCL1 241516Z 21012KT 24/13 A2984 RMK A01 T02410125  RH  048%=      5-min Rain = 0
KCL1 241517Z 20009KT 24/13 A2984 RMK A01 T02400125  RH  049%=      5-min Rain = 0
KCL1 241518Z 21009KT 24/13 A2984 RMK A01 T02390125  RH  049%=      5-min Rain = 0
KCL1 241519Z 22009KT 24/13 A2984 RMK A01 T02410125  RH  048%=      5-min Rain = 0
KCL1 241520Z 23007KT 24/13 A2984 RMK A01 T02410125  RH  048%=      5-min Rain = 0
KCL1 241521Z 19007KT 24/13 A2984 RMK A01 T02410126  RH  049%=      5-min Rain = 0
KCL1 241522Z 20008KT 24/13 A2984 RMK A01 T02430127  RH  048%=      5-min Rain = 0
KCL1 241523Z 21008KT 25/13 A2984 RMK A01 T02450126  RH  047%=      5-min Rain = 0
KCL1 241524Z 21012G17KT 25/13 A2984 RMK A01 T02460127  RH  047%=      5-min Rain = 0
KCL1 241525Z 22013KT 25/12 A2984 RMK A01 T02450124  RH  047%=      5-min Rain = 0
KCL1 241526Z 22011KT 24/12 A2984 RMK A01 T02430124  RH  047%=      5-min Rain = 0
KCL1 241527Z 21012G18KT 24/12 A2984 RMK A01 T02420124  RH  048%=      5-min Rain = 0
KCL1 241528Z 21012KT 24/12 A2984 RMK A01 T02420124  RH  047%=      5-min Rain = 0
KCL1 241529Z 21012KT 24/13 A2984 RMK A01 T02430125  RH  048%=      5-min Rain = 0
KCL1 241530Z 20010KT 24/13 A2984 RMK A01 T02440126  RH  048%=      5-min Rain = 0
KCL1 241531Z 22011KT 25/13 A2984 RMK A01 T02450125  RH  047%=      5-min Rain = 0
KCL1 241532Z 21011KT 24/13 A2984 RMK A01 T02440125  RH  047%=      5-min Rain = 0
KCL1 241533Z 20010KT 24/13 A2984 RMK A01 T02440125  RH  047%=      5-min Rain = 0
KCL1 241534Z 19010KT 25/13 A2984 RMK A01 T02450126  RH  047%=      5-min Rain = 0
KCL1 241535Z 21009KT 25/13 A2984 RMK A01 T02480128  RH  047%=      5-min Rain = 0
KCL1 241536Z 21010KT 25/13 A2984 RMK A01 T02490127  RH  046%=      5-min Rain = 0
KCL1 241537Z 19008KT 25/13 A2984 RMK A01 T02490128  RH  047%=      5-min Rain = 0
KCL1 241538Z 21010KT 25/13 A2984 RMK A01 T02510128  RH  046%=      5-min Rain = 0
KCL1 241539Z 19013KT 25/13 A2984 RMK A01 T02510126  RH  046%=      5-min Rain = 0
KCL1 241540Z 20014G19KT 25/13 A2984 RMK A01 T02500126  RH  046%=      5-min Rain = 0
KCL1 241541Z 20015KT 25/13 A2984 RMK A01 T02480125  RH  046%=      5-min Rain = 0
KCL1 241542Z 20009G14KT 25/12 A2984 RMK A01 T02450124  RH  047%=      5-min Rain = 0
KCL1 241543Z 21010KT 24/12 A2984 RMK A01 T02430124  RH  047%=      5-min Rain = 0
KCL1 241544Z 19010G17KT 24/13 A2984 RMK A01 T02440125  RH  047%=      5-min Rain = 0
KCL1 241545Z 19015G21KT 25/13 A2983 RMK A01 T02460126  RH  047%=      5-min Rain = 0
KCL1 241546Z 22015G21KT 25/13 A2984 RMK A01 T02480126  RH  046%=      5-min Rain = 0
KCL1 241547Z 21010KT 25/12 A2984 RMK A01 T02460124  RH  046%=      5-min Rain = 0
KCL1 241548Z 20009KT 24/13 A2984 RMK A01 T02440126  RH  048%=      5-min Rain = 0
KCL1 241549Z 22012KT 25/13 A2984 RMK A01 T02470126  RH  047%=      5-min Rain = 0
KCL1 241550Z 22014G19KT 25/13 A2984 RMK A01 T02490125  RH  046%=      5-min Rain = 0
KCL1 241551Z 20014KT 25/13 A2984 RMK A01 T02490125  RH  046%=      5-min Rain = 0
KCL1 241552Z 21013KT 25/12 A2984 RMK A01 T02480124  RH  046%=      5-min Rain = 0
KCL1 241553Z 21016KT 25/12 A2984 RMK A01 T02470123  RH  046%=      5-min Rain = 0
KCL1 241554Z 21013KT 25/12 A2984 RMK A01 T02460123  RH  046%=      5-min Rain = 0
KCL1 241555Z 21011KT 25/12 A2984 RMK A01 T02460123  RH  046%=      5-min Rain = 0
KCL1 241556Z 21008KT 25/12 A2984 RMK A01 T02480124  RH  046%=      5-min Rain = 0
KCL1 241557Z 22010KT 25/13 A2984 RMK A01 T02490125  RH  046%=      5-min Rain = 0
KCL1 241558Z 23009KT 25/13 A2984 RMK A01 T02510125  RH  046%=      5-min Rain = 0
KCL1 241559Z 20011KT 25/13 A2984 RMK A01 T02520125  RH  045%=      5-min Rain = 0
KCL1 241600Z 20006KT 25/12 A2984 RMK A01 T02520123  RH  045%=      5-min Rain = 0
KCL1 241601Z 22011G16KT 25/13 A2984 RMK A01 T02510125  RH  045%=      5-min Rain = 0
KCL1 241602Z 21011G18KT 25/12 A2984 RMK A01 T02520124  RH  045%=      5-min Rain = 0
KCL1 241603Z 21009G15KT 25/12 A2984 RMK A01 T02530124  RH  045%=      5-min Rain = 0
KCL1 241604Z 23009KT 25/12 A2984 RMK A01 T02530123  RH  045%=      5-min Rain = 0
KCL1 241605Z 22013KT 25/12 A2984 RMK A01 T02540122  RH  044%=      5-min Rain = 0
KCL1 241606Z 23010KT 25/12 A2984 RMK A01 T02540123  RH  044%=      5-min Rain = 0
KCL1 241607Z 22011KT 25/12 A2984 RMK A01 T02540123  RH  044%=      5-min Rain = 0
KCL1 241608Z 21011G16KT 25/12 A2984 RMK A01 T02540123  RH  044%=      5-min Rain = 0
KCL1 241609Z 23008G14KT 25/13 A2984 RMK A01 T02530125  RH  045%=      5-min Rain = 0
KCL1 241610Z 23008KT 26/13 A2984 RMK A01 T02550125  RH  044%=      5-min Rain = 0
KCL1 241611Z 25007KT 26/13 A2984 RMK A01 T02560125  RH  044%=      5-min Rain = 0
KCL1 241612Z 24006KT 26/13 A2984 RMK A01 T02570125  RH  044%=      5-min Rain = 0
KCL1 241613Z 22006G16KT 26/13 A2984 RMK A01 T02590127  RH  044%=      5-min Rain = 0
KCL1 241614Z 21009G14KT 26/12 A2984 RMK A01 T02600124  RH  043%=      5-min Rain = 0
KCL1 241615Z 21009KT 26/12 A2984 RMK A01 T02570123  RH  043%=      5-min Rain = 0
KCL1 241616Z 22010KT 26/12 A2984 RMK A01 T02560123  RH  044%=      5-min Rain = 0
KCL1 241617Z 21012KT 26/12 A2984 RMK A01 T02560123  RH  043%=      5-min Rain = 0
KCL1 241618Z 21007KT 26/12 A2984 RMK A01 T02560122  RH  043%=      5-min Rain = 0
KCL1 241619Z 21013G19KT 26/12 A2984 RMK A01 T02560123  RH  043%=      5-min Rain = 0
KCL1 241620Z 23014KT 26/12 A2984 RMK A01 T02560122  RH  043%=      5-min Rain = 0
KCL1 241621Z 22012KT 26/12 A2984 RMK A01 T02570123  RH  043%=      5-min Rain = 0
KCL1 241622Z 21014KT 26/12 A2984 RMK A01 T02570122  RH  043%=      5-min Rain = 0
KCL1 241623Z 22013KT 26/12 A2984 RMK A01 T02570121  RH  043%=      5-min Rain = 0
KCL1 241624Z 22012KT 26/12 A2984 RMK A01 T02570121  RH  043%=      5-min Rain = 0
KCL1 241625Z 23009KT 26/12 A2984 RMK A01 T02570120  RH  042%=      5-min Rain = 0
KCL1 241626Z 23011KT 26/12 A2984 RMK A01 T02580121  RH  042%=      5-min Rain = 0
KCL1 241627Z 22009KT 26/12 A2984 RMK A01 T02580121  RH  042%=      5-min Rain = 0
KCL1 241628Z 23006KT 26/12 A2984 RMK A01 T02570122  RH  043%=      5-min Rain = 0
KCL1 241629Z 23007KT 26/12 A2984 RMK A01 T02580123  RH  043%=      5-min Rain = 0
KCL1 241630Z 24007KT 26/12 A2984 RMK A01 T02600124  RH  043%=      5-min Rain = 0
KCL1 241631Z 23007KT 26/12 A2984 RMK A01 T02610124  RH  043%=      5-min Rain = 0
KCL1 241632Z 20004KT 26/13 A2984 RMK A01 T02600125  RH  043%=      5-min Rain = 0
KCL1 241633Z 21006KT 26/13 A2983 RMK A01 T02610125  RH  043%=      5-min Rain = 0
KCL1 241634Z 23006KT 26/13 A2983 RMK A01 T02630125  RH  042%=      5-min Rain = 0
KCL1 241635Z 23005KT 26/13 A2983 RMK A01 T02640126  RH  042%=      5-min Rain = 0
KCL1 241636Z 25010G15KT 27/13 A2983 RMK A01 T02660126  RH  042%=      5-min Rain = 0
KCL1 241637Z 24006KT 27/13 A2983 RMK A01 T02670126  RH  041%=      5-min Rain = 0
KCL1 241638Z 25007KT 27/13 A2983 RMK A01 T02670126  RH  042%=      5-min Rain = 0
KCL1 241639Z 24009KT 27/13 A2983 RMK A01 T02680126  RH  041%=      5-min Rain = 0
KCL1 241640Z 21010KT 27/13 A2983 RMK A01 T02690125  RH  041%=      5-min Rain = 0
KCL1 241641Z 19012KT 27/13 A2983 RMK A01 T02690125  RH  041%=      5-min Rain = 0
KCL1 241642Z 18013KT 27/13 A2983 RMK A01 T02700125  RH  041%=      5-min Rain = 0
KCL1 241643Z 19012KT 27/12 A2983 RMK A01 T02680124  RH  041%=      5-min Rain = 0
KCL1 241644Z 18009KT 27/13 A2983 RMK A01 T02680125  RH  041%=      5-min Rain = 0
KCL1 241645Z 20011KT 27/13 A2983 RMK A01 T02710128  RH  041%=      5-min Rain = 0
KCL1 241646Z 21013KT 27/12 A2983 RMK A01 T02740123  RH  039%=      5-min Rain = 0
KCL1 241647Z 21015KT 27/12 A2983 RMK A01 T02720115  RH  038%=      5-min Rain = 0
KCL1 241648Z 22014G19KT 27/11 A2983 RMK A01 T02690109  RH  037%=      5-min Rain = 0
KCL1 241649Z 22011KT 27/11 A2983 RMK A01 T02670107  RH  037%=      5-min Rain = 0
KCL1 241650Z 24013G20KT 27/11 A2983 RMK A01 T02660109  RH  037%=      5-min Rain = 0
KCL1 241651Z 23010KT 27/11 A2983 RMK A01 T02670108  RH  037%=      5-min Rain = 0
KCL1 241652Z 24012KT 27/11 A2983 RMK A01 T02670109  RH  037%=      5-min Rain = 0
KCL1 241653Z 24011KT 27/11 A2983 RMK A01 T02680111  RH  038%=      5-min Rain = 0
KCL1 241654Z 24012KT 27/11 A2983 RMK A01 T02710112  RH  037%=      5-min Rain = 0
KCL1 241655Z 24013KT 27/11 A2983 RMK A01 T02710110  RH  037%=      5-min Rain = 0
KCL1 241656Z 24013KT 27/11 A2983 RMK A01 T02700110  RH  037%=      5-min Rain = 0
KCL1 241657Z 24015KT 27/11 A2983 RMK A01 T02690111  RH  037%=      5-min Rain = 0
KCL1 241658Z 22010KT 27/11 A2983 RMK A01 T02680112  RH  038%=      5-min Rain = 0
KCL1 241659Z 22009KT 27/11 A2983 RMK A01 T02680113  RH  038%=      5-min Rain = 0
KCL1 241700Z 22010KT 27/11 A2983 RMK A01 T02700112  RH  037%=      5-min Rain = 0
KCL1 241701Z 21008KT 27/11 A2983 RMK A01 T02700110  RH  037%=      5-min Rain = 0
KCL1 241702Z 22008KT 27/11 A2983 RMK A01 T02690108  RH  037%=      5-min Rain = 0
KCL1 241703Z 22009G14KT 27/11 A2983 RMK A01 T02670107  RH  037%=      5-min Rain = 0
KCL1 241704Z 20012G18KT 27/11 A2983 RMK A01 T02680108  RH  037%=      5-min Rain = 0
KCL1 241705Z 21011KT 27/11 A2983 RMK A01 T02690109  RH  037%=      5-min Rain = 0
KCL1 241706Z 22008KT 27/11 A2983 RMK A01 T02720112  RH  037%=      5-min Rain = 0
KCL1 241707Z 24013KT 28/11 A2983 RMK A01 T02750113  RH  037%=      5-min Rain = 0
KCL1 241708Z 24012KT 28/11 A2983 RMK A01 T02750110  RH  036%=      5-min Rain = 0
KCL1 241709Z 23012KT 27/11 A2983 RMK A01 T02740110  RH  036%=      5-min Rain = 0
KCL1 241710Z 23007KT 27/11 A2983 RMK A01 T02710109  RH  036%=      5-min Rain = 0
KCL1 241711Z 24007KT 27/11 A2983 RMK A01 T02700111  RH  037%=      5-min Rain = 0
KCL1 241712Z 25006KT 27/11 A2983 RMK A01 T02700110  RH  037%=      5-min Rain = 0
KCL1 241713Z 22011G18KT 27/11 A2983 RMK A01 T02710110  RH  037%=      5-min Rain = 0
KCL1 241714Z 22014KT 27/11 A2983 RMK A01 T02720111  RH  037%=      5-min Rain = 0
KCL1 241715Z 23010KT 27/11 A2983 RMK A01 T02710112  RH  037%=      5-min Rain = 0
KCL1 241716Z 22010KT 27/11 A2983 RMK A01 T02720112  RH  037%=      5-min Rain = 0
KCL1 241717Z 23012KT 27/11 A2983 RMK A01 T02720111  RH  037%=      5-min Rain = 0
KCL1 241718Z 23008KT 27/11 A2983 RMK A01 T02710112  RH  037%=      5-min Rain = 0
KCL1 241719Z 24006KT 27/11 A2983 RMK A01 T02720113  RH  037%=      5-min Rain = 0
KCL1 241720Z 26009KT 27/12 A2983 RMK A01 T02740115  RH  037%=      5-min Rain = 0
KCL1 241721Z 22009KT 28/11 A2983 RMK A01 T02750114  RH  037%=      5-min Rain = 0
KCL1 241722Z 24008KT 28/11 A2983 RMK A01 T02750114  RH  036%=      5-min Rain = 0
KCL1 241723Z 27010KT 28/12 A2983 RMK A01 T02780115  RH  036%=      5-min Rain = 0
KCL1 241724Z 27012KT 28/11 A2983 RMK A01 T02790112  RH  035%=      5-min Rain = 0
KCL1 241725Z 25010KT 28/11 A2983 RMK A01 T02790113  RH  036%=      5-min Rain = 0
KCL1 241726Z 21006KT 28/11 A2983 RMK A01 T02800113  RH  035%=      5-min Rain = 0
KCL1 241727Z 23005KT 28/12 A2983 RMK A01 T02810115  RH  035%=      5-min Rain = 0
KCL1 241728Z 24009KT 28/12 A2983 RMK A01 T02830115  RH  035%=      5-min Rain = 0
KCL1 241729Z 24006KT 28/12 A2983 RMK A01 T02830115  RH  035%=      5-min Rain = 0
KCL1 241730Z 24007G12KT 29/12 A2983 RMK A01 T02850117  RH  035%=      5-min Rain = 0
KCL1 241731Z 25009G15KT 29/11 A2983 RMK A01 T02870114  RH  034%=      5-min Rain = 0
KCL1 241732Z 24012KT 29/11 A2983 RMK A01 T02870111  RH  033%=      5-min Rain = 0
KCL1 241733Z 23008KT 28/10 A2983 RMK A01 T02840104  RH  033%=      5-min Rain = 0
KCL1 241734Z 26005KT 28/11 A2983 RMK A01 T02800106  RH  034%=      5-min Rain = 0
KCL1 241735Z 26005KT 28/11 A2983 RMK A01 T02790107  RH  034%=      5-min Rain = 0
KCL1 241736Z 18005KT 28/11 A2983 RMK A01 T02810111  RH  035%=      5-min Rain = 0
KCL1 241737Z 20009KT 29/11 A2983 RMK A01 T02860112  RH  034%=      5-min Rain = 0
KCL1 241738Z 19013KT 29/11 A2983 RMK A01 T02860110  RH  034%=      5-min Rain = 0
KCL1 241739Z 19011KT 29/11 A2983 RMK A01 T02850110  RH  034%=      5-min Rain = 0
KCL1 241740Z 19009KT 29/11 A2983 RMK A01 T02850109  RH  034%=      5-min Rain = 0
KCL1 241741Z 19009KT 28/11 A2983 RMK A01 T02840109  RH  034%=      5-min Rain = 0
KCL1 241742Z 19011KT 28/11 A2983 RMK A01 T02830106  RH  033%=      5-min Rain = 0
KCL1 241743Z 19010KT 28/11 A2983 RMK A01 T02840105  RH  033%=      5-min Rain = 0
KCL1 241744Z 19012KT 28/11 A2983 RMK A01 T02840106  RH  033%=      5-min Rain = 0
KCL1 241745Z 18012KT 28/11 A2982 RMK A01 T02840106  RH  033%=      5-min Rain = 0
KCL1 241746Z 19010KT 28/11 A2983 RMK A01 T02840107  RH  033%=      5-min Rain = 0
KCL1 241747Z 18008KT 28/11 A2983 RMK A01 T02840106  RH  033%=      5-min Rain = 0
KCL1 241748Z 20008KT 28/11 A2983 RMK A01 T02840105  RH  033%=      5-min Rain = 0
KCL1 241749Z 21005KT 28/10 A2982 RMK A01 T02830104  RH  033%=      5-min Rain = 0
KCL1 241750Z 20007KT 28/11 A2982 RMK A01 T02840107  RH  033%=      5-min Rain = 0
KCL1 241751Z 22009KT 29/11 A2982 RMK A01 T02890110  RH  033%=      5-min Rain = 0
KCL1 241752Z 22012KT 29/11 A2982 RMK A01 T02910109  RH  032%=      5-min Rain = 0
KCL1 241753Z 22012KT 29/11 A2983 RMK A01 T02900108  RH  032%=      5-min Rain = 0
KCL1 241754Z 22007KT 29/11 A2983 RMK A01 T02860105  RH  032%=      5-min Rain = 0
KCL1 241755Z 23006KT 28/11 A2982 RMK A01 T02840108  RH  034%=      5-min Rain = 0
KCL1 241756Z 23004KT 29/11 A2983 RMK A01 T02870109  RH  033%=      5-min Rain = 0
KCL1 241757Z 19006G11KT 29/11 A2983 RMK A01 T02890111  RH  033%=      5-min Rain = 0
KCL1 241758Z 18009KT 29/11 A2983 RMK A01 T02930110  RH  032%=      5-min Rain = 0
KCL1 241759Z 18007KT 29/11 A2982 RMK A01 T02920107  RH  032%=      5-min Rain = 0
KCL1 241800Z 17008G15KT 29/11 A2982 RMK A01 T02900107  RH  032%=      5-min Rain = 0
KCL1 241801Z 18012G17KT 29/11 A2982 RMK A01 T02900108  RH  032%=      5-min Rain = 0
KCL1 241802Z 19013KT 29/11 A2982 RMK A01 T02920108  RH  032%=      5-min Rain = 0
KCL1 241803Z 19011KT 29/11 A2982 RMK A01 T02930109  RH  032%=      5-min Rain = 0
KCL1 241804Z 20010KT 29/11 A2982 RMK A01 T02940109  RH  032%=      5-min Rain = 0
KCL1 241805Z 18010KT 30/11 A2982 RMK A01 T02970110  RH  032%=      5-min Rain = 0
KCL1 241806Z 19010KT 30/11 A2982 RMK A01 T02990108  RH  031%=      5-min Rain = 0
KCL1 241807Z 21009KT 30/11 A2982 RMK A01 T02950108  RH  031%=      5-min Rain = 0
KCL1 241808Z 22006KT 29/11 A2982 RMK A01 T02920107  RH  032%=      5-min Rain = 0
KCL1 241809Z 25006KT 29/10 A2982 RMK A01 T02920104  RH  031%=      5-min Rain = 0
KCL1 241810Z 26006KT 29/11 A2982 RMK A01 T02920107  RH  032%=      5-min Rain = 0
KCL1 241811Z 26007KT 30/11 A2982 RMK A01 T02950107  RH  031%=      5-min Rain = 0
KCL1 241812Z 25007KT 30/11 A2982 RMK A01 T02970105  RH  030%=      5-min Rain = 0
KCL1 241813Z 19008KT 30/10 A2982 RMK A01 T02970104  RH  030%=      5-min Rain = 0
KCL1 241814Z 17008KT 30/11 A2982 RMK A01 T02960105  RH  031%=      5-min Rain = 0
KCL1 241815Z 20012KT 30/11 A2981 RMK A01 T02970107  RH  031%=      5-min Rain = 0
KCL1 241816Z 20013KT 30/10 A2982 RMK A01 T02980104  RH  030%=      5-min Rain = 0
KCL1 241817Z 22012KT 30/10 A2982 RMK A01 T02950102  RH  030%=      5-min Rain = 0
KCL1 241818Z 23011KT 29/10 A2982 RMK A01 T02940103  RH  031%=      5-min Rain = 0
KCL1 241819Z 22008KT 29/10 A2982 RMK A01 T02930102  RH  031%=      5-min Rain = 0
KCL1 241820Z 24007KT 29/10 A2982 RMK A01 T02930102  RH  031%=      5-min Rain = 0
KCL1 241821Z 20003KT 29/10 A2982 RMK A01 T02930102  RH  030%=      5-min Rain = 0
KCL1 241822Z 17009KT 29/11 A2982 RMK A01 T02920105  RH  031%=      5-min Rain = 0
KCL1 241823Z 17011KT 29/10 A2982 RMK A01 T02940103  RH  030%=      5-min Rain = 0
KCL1 241824Z 17008KT 30/10 A2981 RMK A01 T02950100  RH  030%=      5-min Rain = 0
KCL1 241825Z 18005KT 30/10 A2981 RMK A01 T02960102  RH  030%=      5-min Rain = 0
KCL1 241826Z 18008KT 30/10 A2981 RMK A01 T02970100  RH  029%=      5-min Rain = 0
KCL1 241827Z 19007KT 30/10 A2981 RMK A01 T02990098  RH  029%=      5-min Rain = 0
KCL1 241828Z 18011KT 30/10 A2981 RMK A01 T03010098  RH  028%=      5-min Rain = 0
KCL1 241829Z 22009KT 30/10 A2981 RMK A01 T03010097  RH  028%=      5-min Rain = 0
KCL1 241830Z 24009KT 30/09 A2981 RMK A01 T03020090  RH  027%=      5-min Rain = 0
KCL1 241831Z 20007KT 30/09 A2981 RMK A01 T03020091  RH  027%=      5-min Rain = 0
KCL1 241832Z 19007G13KT 30/10 A2981 RMK A01 T03020095  RH  028%=      5-min Rain = 0
KCL1 241833Z 17007KT 30/09 A2981 RMK A01 T03040094  RH  027%=      5-min Rain = 0
KCL1 241834Z 18010KT 31/09 A2981 RMK A01 T03060089  RH  026%=      5-min Rain = 0
KCL1 241835Z 20008G15KT 31/09 A2981 RMK A01 T03050089  RH  026%=      5-min Rain = 0
KCL1 241836Z 20012KT 30/08 A2981 RMK A01 T03040076  RH  024%=      5-min Rain = 0
KCL1 241837Z 21011KT 31/07 A2981 RMK A01 T03050072  RH  023%=      5-min Rain = 0
KCL1 241838Z 19012KT 31/07 A2981 RMK A01 T03050070  RH  023%=      5-min Rain = 0
KCL1 241839Z 20012KT 30/07 A2981 RMK A01 T03040073  RH  024%=      5-min Rain = 0
KCL1 241840Z 22010KT 30/08 A2981 RMK A01 T03020079  RH  025%=      5-min Rain = 0
KCL1 241841Z 25009KT 30/08 A2981 RMK A01 T03010081  RH  025%=      5-min Rain = 0
KCL1 241842Z 25011KT 30/08 A2981 RMK A01 T03010082  RH  026%=      5-min Rain = 0
KCL1 241843Z 26010KT 30/08 A2981 RMK A01 T03010083  RH  026%=      5-min Rain = 0
KCL1 241844Z 22011KT 30/08 A2981 RMK A01 T03020083  RH  025%=      5-min Rain = 0
KCL1 241845Z 21009G16KT 30/08 A2981 RMK A01 T03030084  RH  026%=      5-min Rain = 0
KCL1 241846Z 21011G16KT 30/09 A2981 RMK A01 T03030086  RH  026%=      5-min Rain = 0
KCL1 241847Z 21009KT 30/09 A2981 RMK A01 T03000085  RH  026%=      5-min Rain = 0
KCL1 241848Z 22012KT 30/09 A2981 RMK A01 T02990086  RH  026%=      5-min Rain = 0
KCL1 241849Z 23010KT 30/09 A2981 RMK A01 T03020085  RH  026%=      5-min Rain = 0
KCL1 241850Z 23007KT 30/09 A2981 RMK A01 T03040085  RH  026%=      5-min Rain = 0
KCL1 241851Z 20007KT 30/09 A2981 RMK A01 T03040089  RH  026%=      5-min Rain = 0
KCL1 241852Z 22008G13KT 30/09 A298 RMK A01 T03040088  RH  026%=      5-min Rain = 0
KCL1 241853Z 21008G13KT 31/09 A298 RMK A01 T03050089  RH  026%=      5-min Rain = 0
KCL1 241854Z 19010G15KT 30/09 A298 RMK A01 T03040092  RH  027%=      5-min Rain = 0
KCL1 241855Z 19010KT 31/09 A298 RMK A01 T03060093  RH  027%=      5-min Rain = 0
KCL1 241856Z 16009KT 31/09 A298 RMK A01 T03060092  RH  027%=      5-min Rain = 0
KCL1 241857Z 17007KT 30/09 A298 RMK A01 T03020094  RH  027%=      5-min Rain = 0
KCL1 241858Z 16007KT 30/09 A298 RMK A01 T02980091  RH  028%=      5-min Rain = 0
KCL1 241859Z 17007KT 30/09 A298 RMK A01 T02950089  RH  028%=      5-min Rain = 0
KCL1 241900Z 21007KT 29/09 A298 RMK A01 T02930087  RH  027%=      5-min Rain = 0
KCL1 241901Z 23004KT 29/08 A298 RMK A01 T02940084  RH  027%=      5-min Rain = 0
KCL1 241902Z 23005KT 30/08 A298 RMK A01 T02950083  RH  026%=      5-min Rain = 0
KCL1 241903Z 22005KT 30/08 A298 RMK A01 T02960079  RH  026%=      5-min Rain = 0
KCL1 241904Z 23005KT 30/08 A298 RMK A01 T02970078  RH  025%=      5-min Rain = 0
KCL1 241905Z 23003KT 30/08 A298 RMK A01 T02960078  RH  025%=      5-min Rain = 0
KCL1 241906Z 16004KT 30/08 A298 RMK A01 T02960081  RH  026%=      5-min Rain = 0
KCL1 241907Z 17003KT 30/09 A298 RMK A01 T02990088  RH  027%=      5-min Rain = 0
KCL1 241908Z 14005KT 30/09 A298 RMK A01 T03020092  RH  027%=      5-min Rain = 0
KCL1 241909Z 14006KT 31/09 A298 RMK A01 T03060094  RH  027%=      5-min Rain = 0
KCL1 241910Z 15006G12KT 31/09 A298 RMK A01 T03070092  RH  026%=      5-min Rain = 0
KCL1 241911Z 16009KT 31/09 A298 RMK A01 T03060091  RH  026%=      5-min Rain = 0
KCL1 241912Z 19006KT 30/09 A298 RMK A01 T03040088  RH  026%=      5-min Rain = 0
KCL1 241913Z 22009KT 30/08 A298 RMK A01 T03010083  RH  026%=      5-min Rain = 0
KCL1 241914Z 21011KT 30/08 A298 RMK A01 T03000083  RH  026%=      5-min Rain = 0
KCL1 241915Z 23011KT 30/08 A298 RMK A01 T03000082  RH  026%=      5-min Rain = 0
KCL1 241916Z 24008KT 30/08 A298 RMK A01 T03020083  RH  026%=      5-min Rain = 0
KCL1 241917Z 22009KT 31/08 A298 RMK A01 T03050083  RH  025%=      5-min Rain = 0
KCL1 241918Z 21007KT 31/08 A298 RMK A01 T03050081  RH  025%=      5-min Rain = 0
KCL1 241919Z 23007KT 31/08 A298 RMK A01 T03050078  RH  024%=      5-min Rain = 0
KCL1 241920Z 26006KT 31/08 A2979 RMK A01 T03060078  RH  024%=      5-min Rain = 0
KCL1 241921Z 26007KT 31/08 A2979 RMK A01 T03080079  RH  024%=      5-min Rain = 0
KCL1 241922Z 27006KT 31/08 A2979 RMK A01 T03080082  RH  025%=      5-min Rain = 0
KCL1 241923Z 25007KT 31/08 A2979 RMK A01 T03090080  RH  024%=      5-min Rain = 0
KCL1 241924Z 23007KT 31/08 A2979 RMK A01 T03070080  RH  024%=      5-min Rain = 0
KCL1 241925Z 22004KT 30/08 A2979 RMK A01 T03030080  RH  025%=      5-min Rain = 0
KCL1 241926Z 21003KT 30/08 A2979 RMK A01 T03010079  RH  025%=      5-min Rain = 0
KCL1 241927Z 19002KT 30/08 A2979 RMK A01 T03000080  RH  025%=      5-min Rain = 0
KCL1 241928Z 26004KT 30/08 A2979 RMK A01 T03010081  RH  025%=      5-min Rain = 0
KCL1 241929Z 27010KT 31/07 A2979 RMK A01 T03070071  RH  023%=      5-min Rain = 0
KCL1 241930Z 27008KT 31/06 A2979 RMK A01 T03110062  RH  021%=      5-min Rain = 0
KCL1 241931Z 26005KT 31/06 A2979 RMK A01 T03140062  RH  021%=      5-min Rain = 0
KCL1 241932Z 23006KT 32/06 A2979 RMK A01 T03170064  RH  020%=      5-min Rain = 0
KCL1 241933Z 24005KT 32/06 A2979 RMK A01 T03190055  RH  019%=      5-min Rain = 0
KCL1 241934Z 23008KT 32/05 A2979 RMK A01 T03160050  RH  019%=      5-min Rain = 0
KCL1 241935Z 23008G13KT 32/05 A2979 RMK A01 T03150053  RH  019%=      5-min Rain = 0
KCL1 241936Z 23009KT 32/06 A2979 RMK A01 T03160056  RH  019%=      5-min Rain = 0
KCL1 241937Z 25006KT 32/06 A2979 RMK A01 T03150061  RH  020%=      5-min Rain = 0
KCL1 241938Z 25009KT 31/07 A2979 RMK A01 T03130065  RH  021%=      5-min Rain = 0
KCL1 241939Z 23006KT 31/06 A2979 RMK A01 T03130063  RH  021%=      5-min Rain = 0
KCL1 241940Z 20005G10KT 31/07 A2979 RMK A01 T03120066  RH  021%=      5-min Rain = 0
KCL1 241941Z 20009G15KT 31/07 A2978 RMK A01 T03130065  RH  021%=      5-min Rain = 0
KCL1 241942Z 23007KT 31/06 A2978 RMK A01 T03110060  RH  021%=      5-min Rain = 0
KCL1 241943Z 26006KT 31/06 A2978 RMK A01 T03080063  RH  021%=      5-min Rain = 0
KCL1 241944Z 24002KT 31/06 A2978 RMK A01 T03070063  RH  022%=      5-min Rain = 0
KCL1 241945Z 25002KT 31/06 A2978 RMK A01 T03070061  RH  021%=      5-min Rain = 0
KCL1 241946Z 16004KT 31/07 A2978 RMK A01 T03070065  RH  022%=      5-min Rain = 0
KCL1 241947Z 16006KT 31/07 A2978 RMK A01 T03100073  RH  023%=      5-min Rain = 0
KCL1 241948Z 16005KT 31/08 A2978 RMK A01 T03140078  RH  023%=      5-min Rain = 0
KCL1 241949Z 16003KT 32/08 A2978 RMK A01 T03180078  RH  022%=      5-min Rain = 0
KCL1 241950Z 20006KT 32/08 A2978 RMK A01 T03210076  RH  022%=      5-min Rain = 0
KCL1 241951Z 18008KT 32/08 A2978 RMK A01 T03210077  RH  022%=      5-min Rain = 0
KCL1 241952Z 18010KT 32/08 A2978 RMK A01 T03220078  RH  022%=      5-min Rain = 0
KCL1 241953Z 19008KT 33/08 A2978 RMK A01 T03260078  RH  022%=      5-min Rain = 0
KCL1 241954Z 18008KT 33/08 A2978 RMK A01 T03280077  RH  021%=      5-min Rain = 0
KCL1 241955Z 19009KT 32/08 A2978 RMK A01 T03220075  RH  022%=      5-min Rain = 0
KCL1 241956Z 15011KT 32/08 A2978 RMK A01 T03180076  RH  022%=      5-min Rain = 0
KCL1 241957Z 17008KT 32/08 A2978 RMK A01 T03180076  RH  022%=      5-min Rain = 0
KCL1 241958Z 20005KT 32/08 A2978 RMK A01 T03180075  RH  022%=      5-min Rain = 0
KCL1 241959Z 17007G12KT 32/08 A2978 RMK A01 T03190077  RH  022%=      5-min Rain = 0
KCL1 242000Z 17012KT 33/08 A2978 RMK A01 T03260075  RH  021%=      5-min Rain = 0
KCL1 242001Z 18008KT 33/07 A2978 RMK A01 T03290072  RH  020%=      5-min Rain = 0
KCL1 242002Z 19008G13KT 33/07 A2978 RMK A01 T03310069  RH  020%=      5-min Rain = 0
KCL1 242003Z 19008KT 33/07 A2978 RMK A01 T03320065  RH  019%=      5-min Rain = 0
KCL1 242004Z 17012KT 33/06 A2978 RMK A01 T03320063  RH  019%=      5-min Rain = 0
KCL1 242005Z 16010KT 33/06 A2978 RMK A01 T03290061  RH  019%=      5-min Rain = 0
KCL1 242006Z 15011G16KT 33/06 A2978 RMK A01 T03270063  RH  019%=      5-min Rain = 0
KCL1 242007Z 18011KT 33/06 A2977 RMK A01 T03260061  RH  019%=      5-min Rain = 0
KCL1 242008Z 19010KT 32/06 A2977 RMK A01 T03240059  RH  019%=      5-min Rain = 0
KCL1 242009Z 18007KT 32/06 A2977 RMK A01 T03230057  RH  019%=      5-min Rain = 0
KCL1 242010Z 17011G16KT 32/06 A2977 RMK A01 T03230057  RH  019%=      5-min Rain = 0
KCL1 242011Z 16013KT 32/05 A2977 RMK A01 T03230052  RH  018%=      5-min Rain = 0
KCL1 242012Z 16012KT 32/05 A2977 RMK A01 T03200050  RH  018%=      5-min Rain = 0
KCL1 242013Z 16012KT 32/05 A2977 RMK A01 T03200049  RH  018%=      5-min Rain = 0
KCL1 242014Z 17008KT 32/05 A2977 RMK A01 T03200050  RH  018%=      5-min Rain = 0
KCL1 242015Z 15007G12KT 32/05 A2977 RMK A01 T03220054  RH  019%=      5-min Rain = 0
KCL1 242016Z 24008G15KT 33/06 A2976 RMK A01 T03260057  RH  019%=      5-min Rain = 0
KCL1 242017Z 20011G16KT 33/05 A2977 RMK A01 T03280054  RH  018%=      5-min Rain = 0
KCL1 242018Z 20013KT 33/06 A2977 RMK A01 T03290058  RH  018%=      5-min Rain = 0
KCL1 242019Z 20011KT 33/06 A2977 RMK A01 T03280056  RH  018%=      5-min Rain = 0
KCL1 242020Z 19016G22KT 33/06 A2977 RMK A01 T03260056  RH  018%=      5-min Rain = 0
KCL1 242021Z 20015G21KT 33/05 A2977 RMK A01 T03260054  RH  018%=      5-min Rain = 0
KCL1 242022Z 22010G15KT 33/05 A2977 RMK A01 T03270050  RH  018%=      5-min Rain = 0
KCL1 242023Z 21007KT 32/05 A2977 RMK A01 T03230047  RH  018%=      5-min Rain = 0
KCL1 242024Z 21007KT 32/05 A2977 RMK A01 T03220049  RH  018%=      5-min Rain = 0
KCL1 242025Z 21009KT 32/05 A2977 RMK A01 T03220048  RH  018%=      5-min Rain = 0
KCL1 242026Z 17008KT 32/05 A2977 RMK A01 T03200048  RH  018%=      5-min Rain = 0
KCL1 242027Z 16008KT 32/05 A2977 RMK A01 T03200046  RH  018%=      5-min Rain = 0
KCL1 242028Z 13008KT 32/05 A2977 RMK A01 T03200049  RH  018%=      5-min Rain = 0
KCL1 242029Z 14008KT 32/05 A2977 RMK A01 T03230049  RH  018%=      5-min Rain = 0
KCL1 242030Z 15007KT 32/05 A2977 RMK A01 T03240047  RH  018%=      5-min Rain = 0
KCL1 242031Z 14006KT 32/05 A2976 RMK A01 T03220046  RH  018%=      5-min Rain = 0
KCL1 242032Z 17006KT 32/05 A2976 RMK A01 T03220052  RH  018%=      5-min Rain = 0
KCL1 242033Z 18008KT 33/05 A2976 RMK A01 T03270053  RH  018%=      5-min Rain = 0
KCL1 242034Z 20013G18KT 33/05 A2976 RMK A01 T03310049  RH  017%=      5-min Rain = 0
KCL1 242035Z 18013KT 33/05 A2976 RMK A01 T03300045  RH  017%=      5-min Rain = 0
KCL1 242036Z 17014G19KT 33/05 A2976 RMK A01 T03280045  RH  017%=      5-min Rain = 0
KCL1 242037Z 16012KT 33/05 A2976 RMK A01 T03250045  RH  017%=      5-min Rain = 0
KCL1 242038Z 17010KT 33/05 A2976 RMK A01 T03250048  RH  018%=      5-min Rain = 0
KCL1 242039Z 18012KT 33/04 A2976 RMK A01 T03270044  RH  017%=      5-min Rain = 0
KCL1 242040Z 18012KT 33/04 A2976 RMK A01 T03270043  RH  017%=      5-min Rain = 0
KCL1 242041Z 19014G19KT 32/04 A2976 RMK A01 T03230040  RH  017%=      5-min Rain = 0
KCL1 242042Z 17012G18KT 32/04 A2976 RMK A01 T03190038  RH  017%=      5-min Rain = 0
KCL1 242043Z 18014KT 32/04 A2976 RMK A01 T03150040  RH  018%=      5-min Rain = 0
KCL1 242044Z 16009KT 31/04 A2976 RMK A01 T03130036  RH  017%=      5-min Rain = 0
KCL1 242045Z 16010KT 31/04 A2976 RMK A01 T03110035  RH  017%=      5-min Rain = 0
KCL1 242046Z 18012G17KT 31/03 A2976 RMK A01 T03100033  RH  017%=      5-min Rain = 0
KCL1 242047Z 16012KT 31/03 A2976 RMK A01 T03120032  RH  017%=      5-min Rain = 0
KCL1 242048Z 19008KT 31/03 A2976 RMK A01 T03130033  RH  017%=      5-min Rain = 0
KCL1 242049Z 19009KT 31/03 A2975 RMK A01 T03140033  RH  017%=      5-min Rain = 0
KCL1 242050Z 18010KT 32/04 A2975 RMK A01 T03150036  RH  017%=      5-min Rain = 0
KCL1 242051Z 18011KT 32/04 A2975 RMK A01 T03160036  RH  017%=      5-min Rain = 0
KCL1 242052Z 18010KT 31/04 A2976 RMK A01 T03140035  RH  017%=      5-min Rain = 0
KCL1 242053Z 21009KT 31/04 A2976 RMK A01 T03120035  RH  017%=      5-min Rain = 0
KCL1 242054Z 21009KT 31/03 A2976 RMK A01 T03110033  RH  017%=      5-min Rain = 0
KCL1 242055Z 21010KT 31/03 A2975 RMK A01 T03110033  RH  017%=      5-min Rain = 0
KCL1 242056Z 20008G13KT 31/03 A2975 RMK A01 T03100032  RH  017%=      5-min Rain = 0
KCL1 242057Z 20007KT 31/03 A2975 RMK A01 T03090029  RH  017%=      5-min Rain = 0
KCL1 242058Z 20007KT 31/03 A2975 RMK A01 T03080031  RH  017%=      5-min Rain = 0
KCL1 242059Z 20008KT 31/03 A2975 RMK A01 T03080032  RH  017%=      5-min Rain = 0
KCL1 242100Z 20006KT 31/03 A2975 RMK A01 T03080030  RH  017%=      5-min Rain = 0
KCL1 242101Z 21005KT 31/03 A2975 RMK A01 T03080030  RH  017%=      5-min Rain = 0
KCL1 242102Z 21005KT 31/03 A2975 RMK A01 T03080030  RH  017%=      5-min Rain = 0
KCL1 242103Z 20004KT 31/03 A2975 RMK A01 T03080030  RH  017%=      5-min Rain = 0
KCL1 242104Z 21003KT 31/03 A2975 RMK A01 T03070031  RH  017%=      5-min Rain = 0
KCL1 242105Z 19007KT 31/03 A2975 RMK A01 T03070030  RH  017%=      5-min Rain = 0
KCL1 242106Z 21008KT 31/03 A2975 RMK A01 T03070030  RH  017%=      5-min Rain = 0
KCL1 242107Z 21010KT 31/03 A2975 RMK A01 T03070029  RH  017%=      5-min Rain = 0
KCL1 242108Z 21010KT 31/03 A2975 RMK A01 T03070030  RH  017%=      5-min Rain = 0
KCL1 242109Z 22010KT 31/03 A2975 RMK A01 T03070031  RH  017%=      5-min Rain = 0
KCL1 242110Z 22009KT 31/03 A2975 RMK A01 T03070031  RH  017%=      5-min Rain = 0
KCL1 242111Z 22009KT 31/03 A2975 RMK A01 T03070030  RH  017%=      5-min Rain = 0
KCL1 242112Z 22009KT 31/03 A2975 RMK A01 T03070031  RH  017%=      5-min Rain = 0
KCL1 242113Z 21010KT 31/03 A2974 RMK A01 T03060030  RH  017%=      5-min Rain = 0
KCL1 242114Z 21011KT 31/03 A2974 RMK A01 T03050029  RH  017%=      5-min Rain = 0
KCL1 242115Z 22007KT 31/03 A2974 RMK A01 T03060029  RH  017%=      5-min Rain = 0
KCL1 242116Z 21006KT 31/03 A2974 RMK A01 T03050030  RH  017%=      5-min Rain = 0
KCL1 242117Z 20003KT 31/03 A2974 RMK A01 T03050034  RH  018%=      5-min Rain = 0
KCL1 242118Z 20006KT 31/04 A2974 RMK A01 T03050040  RH  019%=      5-min Rain = 0
KCL1 242119Z 19010KT 31/05 A2974 RMK A01 T03050054  RH  021%=      5-min Rain = 0
KCL1 242120Z 17009KT 30/07 A2974 RMK A01 T03040065  RH  022%=      5-min Rain = 0
KCL1 242121Z 17008KT 30/07 A2974 RMK A01 T03020071  RH  024%=      5-min Rain = 0
KCL1 242122Z 16011KT 30/07 A2974 RMK A01 T03010072  RH  024%=      5-min Rain = 0
KCL1 242123Z 17009KT 30/07 A2974 RMK A01 T03000072  RH  024%=      5-min Rain = 0
KCL1 242124Z 17009KT 30/07 A2974 RMK A01 T02990073  RH  024%=      5-min Rain = 0
KCL1 242125Z 17010KT 30/07 A2974 RMK A01 T02980074  RH  025%=      5-min Rain = 0
KCL1 242126Z 16010KT 30/08 A2974 RMK A01 T02980076  RH  025%=      5-min Rain = 0
KCL1 242127Z 15010KT 30/08 A2974 RMK A01 T02960078  RH  025%=      5-min Rain = 0
KCL1 242128Z 14010KT 30/08 A2974 RMK A01 T02950079  RH  026%=      5-min Rain = 0
KCL1 242129Z 16009KT 29/08 A2974 RMK A01 T02940080  RH  026%=      5-min Rain = 0
KCL1 242130Z 15011KT 29/08 A2974 RMK A01 T02940080  RH  026%=      5-min Rain = 0
KCL1 242131Z 14011KT 29/08 A2974 RMK A01 T02930079  RH  026%=      5-min Rain = 0
KCL1 242132Z 15010KT 29/08 A2974 RMK A01 T02930079  RH  026%=      5-min Rain = 0
KCL1 242133Z 14012KT 29/08 A2974 RMK A01 T02920080  RH  027%=      5-min Rain = 0
KCL1 242134Z 15010KT 29/08 A2973 RMK A01 T02910081  RH  027%=      5-min Rain = 0
KCL1 242135Z 16012KT 29/08 A2973 RMK A01 T02910082  RH  027%=      5-min Rain = 0
KCL1 242136Z 17013KT 29/08 A2973 RMK A01 T02910084  RH  027%=      5-min Rain = 0
KCL1 242137Z 17009G14KT 29/09 A2973 RMK A01 T02900085  RH  028%=      5-min Rain = 0
KCL1 242138Z 15008KT 29/09 A2974 RMK A01 T02900087  RH  028%=      5-min Rain = 0
KCL1 242139Z 15009G14KT 29/09 A2974 RMK A01 T02900089  RH  028%=      5-min Rain = 0
KCL1 242140Z 17009KT 29/09 A2974 RMK A01 T02890089  RH  029%=      5-min Rain = 0
KCL1 242141Z 17006KT 29/09 A2974 RMK A01 T02890090  RH  029%=      5-min Rain = 0
KCL1 242142Z 16007KT 29/09 A2974 RMK A01 T02890091  RH  029%=      5-min Rain = 0
KCL1 242143Z 17009KT 29/09 A2974 RMK A01 T02880090  RH  029%=      5-min Rain = 0
KCL1 242144Z 17008KT 29/09 A2974 RMK A01 T02880090  RH  029%=      5-min Rain = 0
KCL1 242145Z 24007KT 29/09 A2975 RMK A01 T02880089  RH  029%=      5-min Rain = 0
KCL1 242146Z 28007KT 29/09 A2974 RMK A01 T02880088  RH  029%=      5-min Rain = 0
KCL1 242147Z 31007KT 29/09 A2974 RMK A01 T02880090  RH  029%=      5-min Rain = 0
KCL1 242148Z 31005KT 29/08 A2974 RMK A01 T02880080  RH  027%=      5-min Rain = 0
KCL1 242149Z 25003KT 29/08 A2974 RMK A01 T02860084  RH  028%=      5-min Rain = 0
KCL1 242150Z 22006KT 29/09 A2974 RMK A01 T02850085  RH  029%=      5-min Rain = 0
KCL1 242151Z 20008KT 29/09 A2975 RMK A01 T02850089  RH  029%=      5-min Rain = 0
KCL1 242152Z 22009G16KT 29/08 A2975 RMK A01 T02860084  RH  028%=      5-min Rain = 0
KCL1 242153Z 20002KT 29/09 A2976 RMK A01 T02860085  RH  028%=      5-min Rain = 0
KCL1 242154Z 05002G7KT 29/09 A2976 RMK A01 T02860085  RH  028%=      5-min Rain = 0
KCL1 242155Z 07011G19KT 28/07 A2975 RMK A01 T02840069  RH  026%=      5-min Rain = 0
KCL1 242156Z 01009KT 28/06 A2974 RMK A01 T02770055  RH  024%=      5-min Rain = 0
KCL1 242157Z 29009KT 27/07 A2974 RMK A01 T02710065  RH  027%=      5-min Rain = 0
KCL1 242158Z 30007KT 27/07 A2974 RMK A01 T02680065  RH  028%=      5-min Rain = 0
KCL1 242159Z 32005KT 27/06 A2974 RMK A01 T02660060  RH  027%=      5-min Rain = 0
KCL1 242200Z 30006KT 27/07 A2974 RMK A01 T02660067  RH  028%=      5-min Rain = 0
KCL1 242201Z 31005KT 26/07 A2974 RMK A01 T02640072  RH  030%=      5-min Rain = 0
KCL1 242202Z 29006KT 26/08 A2974 RMK A01 T02610080  RH  032%=      5-min Rain = 0
KCL1 242203Z 28007KT 26/08 A2974 RMK A01 T02590080  RH  032%=      5-min Rain = 0
KCL1 242204Z 29008KT 26/08 A2975 RMK A01 T02580075  RH  031%=      5-min Rain = 0
KCL1 242205Z 29009KT 26/07 A2975 RMK A01 T02580069  RH  030%=      5-min Rain = 0
KCL1 242206Z 28009KT 26/07 A2975 RMK A01 T02580067  RH  029%=      5-min Rain = 0
KCL1 242207Z 30012KT 26/06 A2975 RMK A01 T02590061  RH  028%=      5-min Rain = 0
KCL1 242208Z 29012KT 26/07 A2975 RMK A01 T02590067  RH  029%=      5-min Rain = 0
KCL1 242209Z 28011KT 26/07 A2975 RMK A01 T02590066  RH  029%=      5-min Rain = 0
KCL1 242210Z 28012KT 26/06 A2975 RMK A01 T02580062  RH  029%=      5-min Rain = 0
KCL1 242211Z 28010KT 26/06 A2976 RMK A01 T02600057  RH  027%=      5-min Rain = 0
KCL1 242212Z 29010KT 26/06 A2976 RMK A01 T02620064  RH  028%=      5-min Rain = 0
KCL1 242213Z 29008KT 26/07 A2976 RMK A01 T02610068  RH  029%=      5-min Rain = 0
KCL1 242214Z 28006KT 26/08 A2977 RMK A01 T02600075  RH  031%=      5-min Rain = 0
KCL1 242215Z 30004KT 26/08 A2977 RMK A01 T02580079  RH  032%=      5-min Rain = 0
KCL1 242216Z 28005KT 26/08 A2976 RMK A01 T02560080  RH  033%=      5-min Rain = 0
KCL1 242217Z 02002KT 25/09 A2976 RMK A01 T02540085  RH  034%=      5-min Rain = 0
KCL1 242218Z 04005KT 25/09 A2976 RMK A01 T02510093  RH  037%=      5-min Rain = 0
KCL1 242219Z 04006KT 25/10 A2976 RMK A01 T02460099  RH  039%=      5-min Rain = 0
KCL1 242220Z 02007KT 24/10 A2975 RMK A01 T02410101  RH  041%=      5-min Rain = 0
KCL1 242221Z 34006KT 24/11 A2975 RMK A01 T02370107  RH  044%=      5-min Rain = 0
KCL1 242222Z 34006KT 24/11 A2975 RMK A01 T02360105  RH  044%=      5-min Rain = 0
KCL1 242223Z 33006KT 23/11 A2975 RMK A01 T02340108  RH  045%=      5-min Rain = 0
KCL1 242224Z 31006KT 23/11 A2975 RMK A01 T02340114  RH  047%=      5-min Rain = 0
KCL1 242225Z 31008KT 23/11 A2975 RMK A01 T02340112  RH  046%=      5-min Rain = 0
KCL1 242226Z 31011KT 23/11 A2975 RMK A01 T02330106  RH  045%=      5-min Rain = 0
KCL1 242227Z 32012KT 24/10 A2975 RMK A01 T02350104  RH  044%=      5-min Rain = 0
KCL1 242228Z 32012KT 24/10 A2975 RMK A01 T02350101  RH  043%=      5-min Rain = 0
KCL1 242229Z 33011KT 24/10 A2975 RMK A01 T02380097  RH  041%=      5-min Rain = 0
KCL1 242230Z 30007G12KT 24/10 A2976 RMK A01 T02400098  RH  041%=      5-min Rain = 0
KCL1 242231Z 22007KT 24/10 A2976 RMK A01 T02400097  RH  040%=      5-min Rain = 0
KCL1 242232Z 16006G12KT 24/09 A2976 RMK A01 T02420088  RH  037%=      5-min Rain = 0
KCL1 242233Z 09004G10KT 25/07 A2975 RMK A01 T02450070  RH  033%=      5-min Rain = 0
KCL1 242234Z 34003KT 25/08 A2974 RMK A01 T02490075  RH  033%=      5-min Rain = 0
KCL1 242235Z 01011KT 25/10 A2974 RMK A01 T02480098  RH  039%=      5-min Rain = 0
KCL1 242236Z 01010G15KT 24/08 A2973 RMK A01 T02430084  RH  036%=      5-min Rain = 0
KCL1 242237Z 34011KT 25/09 A2973 RMK A01 T02450086  RH  036%=      5-min Rain = 0
KCL1 242238Z 33007KT 24/10 A2974 RMK A01 T02430097  RH  040%=      5-min Rain = 0
KCL1 242239Z 29005KT 24/10 A2974 RMK A01 T02400096  RH  040%=      5-min Rain = 0
KCL1 242240Z 31006KT 24/10 A2974 RMK A01 T02380098  RH  041%=      5-min Rain = 0
KCL1 242241Z 33004KT 24/10 A2974 RMK A01 T02360100  RH  042%=      5-min Rain = 0
KCL1 242242Z 33004KT 23/10 A2974 RMK A01 T02340098  RH  042%=      5-min Rain = 0
KCL1 242243Z 33007KT 23/11 A2974 RMK A01 T02340105  RH  044%=      5-min Rain = 0
KCL1 242244Z 31005KT 23/11 A2974 RMK A01 T02310110  RH  046%=      5-min Rain = 0
KCL1 242245Z 12003G8KT 23/11 A2974 RMK A01 T02290107  RH  046%=      5-min Rain = 0
KCL1 242246Z 10010KT 23/11 A2974 RMK A01 T02270106  RH  046%=      5-min Rain = 0
KCL1 242247Z 09011KT 23/10 A2974 RMK A01 T02280096  RH  043%=      5-min Rain = 0
KCL1 242248Z 08009KT 23/10 A2974 RMK A01 T02310095  RH  042%=      5-min Rain = 0
KCL1 242249Z 06008KT 23/09 A2973 RMK A01 T02330093  RH  041%=      5-min Rain = 0
KCL1 242250Z 05008KT 23/09 A2973 RMK A01 T02340094  RH  041%=      5-min Rain = 0
KCL1 242251Z 04008KT 23/10 A2973 RMK A01 T02330100  RH  043%=      5-min Rain = 0.01
KCL1 242252Z 04009KT 23/10 A2972 RMK A01 T02300101  RH  044%=      5-min Rain = 0
KCL1 242253Z 02010KT 23/10 A2971 RMK A01 T02280102  RH  045%=      5-min Rain = 0
KCL1 242254Z 01010KT 23/10 A2971 RMK A01 T02260104  RH  046%=      5-min Rain = 0
KCL1 242255Z 03006KT 23/10 A2971 RMK A01 T02250099  RH  045%=      5-min Rain = 0
KCL1 242256Z 05003KT 23/10 A297 RMK A01 T02260101  RH  045%=      5-min Rain = 0
KCL1 242257Z 11001KT 23/10 A297 RMK A01 T02270104  RH  046%=      5-min Rain = 0
KCL1 242258Z 14004KT 23/10 A297 RMK A01 T02270097  RH  044%=      5-min Rain = 0
KCL1 242259Z 17004KT 23/10 A297 RMK A01 T02280098  RH  044%=      5-min Rain = 0
KCL1 242300Z 18003KT 23/08 A297 RMK A01 T02320076  RH  037%=      5-min Rain = 0
KCL1 242301Z 21003KT 24/09 A297 RMK A01 T02360088  RH  039%=      5-min Rain = 0
KCL1 242302Z 23003KT 24/08 A2969 RMK A01 T02390077  RH  035%=      5-min Rain = 0
KCL1 242303Z 26004KT 24/09 A297 RMK A01 T02420089  RH  038%=      5-min Rain = 0
KCL1 242304Z 32005KT 24/10 A297 RMK A01 T02420096  RH  040%=      5-min Rain = 0
KCL1 242305Z 33005KT 24/09 A2969 RMK A01 T02410089  RH  038%=      5-min Rain = 0
KCL1 242306Z 35005KT 24/10 A2969 RMK A01 T02410095  RH  040%=      5-min Rain = 0
KCL1 242307Z 35007KT 24/10 A2969 RMK A01 T02390099  RH  041%=      5-min Rain = 0
KCL1 242308Z 35009KT 24/10 A2969 RMK A01 T02380104  RH  043%=      5-min Rain = 0
KCL1 242309Z 34009KT 24/11 A2969 RMK A01 T02360105  RH  044%=      5-min Rain = 0
KCL1 242310Z 34007KT 24/10 A2969 RMK A01 T02360102  RH  043%=      5-min Rain = 0
KCL1 242311Z 35007KT 24/10 A2969 RMK A01 T02350104  RH  044%=      5-min Rain = 0
KCL1 242312Z 34007KT 24/11 A2969 RMK A01 T02350107  RH  044%=      5-min Rain = 0
KCL1 242313Z 35006KT 23/10 A2969 RMK A01 T02340100  RH  043%=      5-min Rain = 0
KCL1 242314Z 35007KT 24/10 A2969 RMK A01 T02350097  RH  041%=      5-min Rain = 0
KCL1 242315Z 36006KT 24/09 A297 RMK A01 T02370086  RH  038%=      5-min Rain = 0
KCL1 242316Z 00004KT 24/09 A297 RMK A01 T02390087  RH  038%=      5-min Rain = 0
KCL1 242317Z 02004KT 24/09 A297 RMK A01 T02410086  RH  037%=      5-min Rain = 0
KCL1 242318Z 02004KT 24/10 A297 RMK A01 T02410095  RH  039%=      5-min Rain = 0
KCL1 242319Z 03004KT 24/09 A297 RMK A01 T02400093  RH  039%=      5-min Rain = 0
KCL1 242320Z 02003KT 24/09 A297 RMK A01 T02400086  RH  038%=      5-min Rain = 0
KCL1 242321Z 02001KT 24/08 A297 RMK A01 T02420075  RH  034%=      5-min Rain = 0
KCL1 242322Z 03002KT 24/08 A2971 RMK A01 T02440082  RH  036%=      5-min Rain = 0
KCL1 242323Z 01001KT 24/09 A2971 RMK A01 T02440086  RH  036%=      5-min Rain = 0
KCL1 242324Z 34001KT 24/08 A297 RMK A01 T02440080  RH  035%=      5-min Rain = 0
KCL1 242325Z 34001KT 24/08 A297 RMK A01 T02440076  RH  034%=      5-min Rain = 0
KCL1 242326Z 36002KT 24/07 A297 RMK A01 T02440072  RH  033%=      5-min Rain = 0
KCL1 242327Z 34003KT 25/08 A2969 RMK A01 T02460076  RH  034%=      5-min Rain = 0
KCL1 242328Z 33003KT 25/08 A2969 RMK A01 T02460081  RH  035%=      5-min Rain = 0
KCL1 242329Z 32004KT 25/08 A2969 RMK A01 T02450082  RH  035%=      5-min Rain = 0
KCL1 242330Z 33005KT 24/09 A2969 RMK A01 T02440091  RH  038%=      5-min Rain = 0
KCL1 242331Z 33005KT 24/10 A2968 RMK A01 T02410098  RH  040%=      5-min Rain = 0
KCL1 242332Z 33005KT 24/09 A2968 RMK A01 T02400092  RH  039%=      5-min Rain = 0
KCL1 242333Z 31004KT 24/09 A2968 RMK A01 T02390087  RH  038%=      5-min Rain = 0
KCL1 242334Z 30004KT 24/08 A2968 RMK A01 T02400084  RH  037%=      5-min Rain = 0
KCL1 242335Z 26003KT 24/09 A2968 RMK A01 T02410090  RH  038%=      5-min Rain = 0
KCL1 242336Z 25003KT 24/09 A2968 RMK A01 T02410087  RH  038%=      5-min Rain = 0
KCL1 242337Z 24003KT 24/07 A2968 RMK A01 T02420072  RH  034%=      5-min Rain = 0
KCL1 242338Z 23004KT 25/08 A2968 RMK A01 T02450081  RH  035%=      5-min Rain = 0
KCL1 242339Z 24005KT 25/08 A2968 RMK A01 T02460083  RH  035%=      5-min Rain = 0
KCL1 242340Z 24005KT 25/08 A2968 RMK A01 T02460080  RH  035%=      5-min Rain = 0
KCL1 242341Z 24005KT 25/08 A2969 RMK A01 T02460079  RH  034%=      5-min Rain = 0
KCL1 242342Z 24007KT 25/08 A2969 RMK A01 T02460082  RH  035%=      5-min Rain = 0
KCL1 242343Z 24008KT 25/08 A2969 RMK A01 T02450079  RH  035%=      5-min Rain = 0
KCL1 242344Z 25009KT 25/07 A2969 RMK A01 T02460074  RH  033%=      5-min Rain = 0
KCL1 242345Z 22009KT 25/08 A2969 RMK A01 T02470075  RH  033%=      5-min Rain = 0
KCL1 242346Z 21008KT 25/07 A2969 RMK A01 T02480074  RH  033%=      5-min Rain = 0
KCL1 242347Z 21006KT 25/07 A2969 RMK A01 T02480072  RH  032%=      5-min Rain = 0
KCL1 242348Z 22009G19KT 25/07 A2969 RMK A01 T02490071  RH  032%=      5-min Rain = 0
KCL1 242349Z 24014G28KT 25/07 A2969 RMK A01 T02500068  RH  031%=      5-min Rain = 0
KCL1 242350Z 25022G28KT 25/05 A2969 RMK A01 T02540052  RH  027%=      5-min Rain = 0
KCL1 242351Z 24025G35KT 26/04 A2969 RMK A01 T02600044  RH  025%=      5-min Rain = 0
KCL1 242352Z 24018G24KT 27/04 A297 RMK A01 T02650042  RH  024%=      5-min Rain = 0
KCL1 242353Z 23015G21KT 27/04 A297 RMK A01 T02680041  RH  023%=      5-min Rain = 0
KCL1 242354Z 23015KT 27/04 A297 RMK A01 T02690040  RH  023%=      5-min Rain = 0
KCL1 242355Z 25015G22KT 27/04 A2971 RMK A01 T02690039  RH  023%=      5-min Rain = 0
KCL1 242356Z 22013G20KT 27/04 A2971 RMK A01 T02690036  RH  022%=      5-min Rain = 0
KCL1 242357Z 20015G22KT 27/04 A297 RMK A01 T02690039  RH  023%=      5-min Rain = 0
KCL1 242358Z 22020G28KT 27/04 A2971 RMK A01 T02670038  RH  023%=      5-min Rain = 0
KCL1 242359Z 21023G29KT 27/04 A297 RMK A01 T02660037  RH  023%=      5-min Rain = 0
KCL1 250000Z 21014G22KT 27/04 A297 RMK A01 T02650038  RH  023%=      5-min Rain = 0
KCL1 250001Z 24016G25KT 26/04 A297 RMK A01 T02630041  RH  024%=      5-min Rain = 0
KCL1 250002Z 25019G24KT 26/04 A297 RMK A01 T02620041  RH  024%=      5-min Rain = 0
KCL1 250003Z 26018G23KT 26/04 A2969 RMK A01 T02620039  RH  024%=      5-min Rain = 0
KCL1 250004Z 24015G21KT 26/04 A2969 RMK A01 T02620039  RH  024%=      5-min Rain = 0
KCL1 250005Z 24013KT 26/04 A2968 RMK A01 T02610036  RH  023%=      5-min Rain = 0
KCL1 250006Z 27012KT 26/04 A2968 RMK A01 T02610036  RH  023%=      5-min Rain = 0
KCL1 250007Z 28010KT 26/04 A2967 RMK A01 T02600039  RH  024%=      5-min Rain = 0
KCL1 250008Z 30012KT 26/04 A2967 RMK A01 T02590037  RH  024%=      5-min Rain = 0
KCL1 250009Z 29012KT 26/04 A2966 RMK A01 T02580039  RH  024%=      5-min Rain = 0
KCL1 250010Z 32015G20KT 26/04 A2966 RMK A01 T02570041  RH  025%=      5-min Rain = 0
KCL1 250011Z 33012G17KT 26/04 A2966 RMK A01 T02570035  RH  024%=      5-min Rain = 0
KCL1 250012Z 33008KT 26/03 A2966 RMK A01 T02590032  RH  023%=      5-min Rain = 0
KCL1 250013Z 34009KT 26/04 A2966 RMK A01 T02610035  RH  023%=      5-min Rain = 0
KCL1 250014Z 36009KT 26/04 A2967 RMK A01 T02610040  RH  024%=      5-min Rain = 0
KCL1 250015Z 00010KT 26/04 A2967 RMK A01 T02590041  RH  024%=      5-min Rain = 0
KCL1 250016Z 01010KT 26/04 A2968 RMK A01 T02580040  RH  024%=      5-min Rain = 0
KCL1 250017Z 01009KT 26/04 A2968 RMK A01 T02570043  RH  025%=      5-min Rain = 0
KCL1 250018Z 36007KT 26/04 A2968 RMK A01 T02560042  RH  025%=      5-min Rain = 0
KCL1 250019Z 00008KT 26/04 A2969 RMK A01 T02560044  RH  025%=      5-min Rain = 0
KCL1 250020Z 36007KT 26/04 A2969 RMK A01 T02550044  RH  026%=      5-min Rain = 0
KCL1 250021Z 36007KT 26/05 A2969 RMK A01 T02550045  RH  026%=      5-min Rain = 0
KCL1 250022Z 35008KT 25/05 A2969 RMK A01 T02540046  RH  026%=      5-min Rain = 0
KCL1 250023Z 35007KT 25/05 A2969 RMK A01 T02540047  RH  026%=      5-min Rain = 0
KCL1 250024Z 01006KT 25/05 A2969 RMK A01 T02530047  RH  027%=      5-min Rain = 0
KCL1 250025Z 02006KT 25/05 A2969 RMK A01 T02530048  RH  027%=      5-min Rain = 0
KCL1 250026Z 03006KT 25/05 A2969 RMK A01 T02520049  RH  027%=      5-min Rain = 0
KCL1 250027Z 03006KT 25/05 A2969 RMK A01 T02510050  RH  027%=      5-min Rain = 0
KCL1 250028Z 03007KT 25/05 A297 RMK A01 T02500052  RH  028%=      5-min Rain = 0
KCL1 250029Z 03007KT 25/05 A297 RMK A01 T02480054  RH  029%=      5-min Rain = 0
KCL1 250030Z 04007KT 25/06 A297 RMK A01 T02460057  RH  030%=      5-min Rain = 0
KCL1 250031Z 04008KT 24/06 A297 RMK A01 T02440057  RH  030%=      5-min Rain = 0
KCL1 250032Z 04008KT 24/06 A297 RMK A01 T02430058  RH  030%=      5-min Rain = 0
KCL1 250033Z 04008KT 24/06 A297 RMK A01 T02420059  RH  031%=      5-min Rain = 0
KCL1 250034Z 04008KT 24/06 A297 RMK A01 T02420058  RH  031%=      5-min Rain = 0
KCL1 250035Z 05008KT 24/06 A297 RMK A01 T02420060  RH  031%=      5-min Rain = 0
KCL1 250036Z 05008KT 24/06 A297 RMK A01 T02410059  RH  031%=      5-min Rain = 0
KCL1 250037Z 05008KT 24/06 A297 RMK A01 T02410058  RH  031%=      5-min Rain = 0
KCL1 250038Z 05007KT 24/06 A297 RMK A01 T02410059  RH  031%=      5-min Rain = 0
KCL1 250039Z 05008KT 24/06 A297 RMK A01 T02400062  RH  032%=      5-min Rain = 0
KCL1 250040Z 05008KT 24/06 A297 RMK A01 T02390061  RH  032%=      5-min Rain = 0
KCL1 250041Z 05008KT 24/06 A2969 RMK A01 T02380059  RH  032%=      5-min Rain = 0
KCL1 250042Z 05008KT 24/06 A2969 RMK A01 T02380061  RH  032%=      5-min Rain = 0
KCL1 250043Z 05007KT 24/06 A2969 RMK A01 T02380063  RH  032%=      5-min Rain = 0
KCL1 250044Z 06007KT 24/06 A2969 RMK A01 T02370063  RH  033%=      5-min Rain = 0
KCL1 250045Z 05007KT 24/07 A2969 RMK A01 T02360065  RH  033%=      5-min Rain = 0
KCL1 250046Z 06008KT 23/07 A2969 RMK A01 T02340066  RH  034%=      5-min Rain = 0
KCL1 250047Z 06007KT 23/07 A2968 RMK A01 T02330067  RH  034%=      5-min Rain = 0
KCL1 250048Z 06008KT 23/07 A2968 RMK A01 T02310068  RH  035%=      5-min Rain = 0
KCL1 250049Z 06008KT 23/07 A2968 RMK A01 T02300069  RH  035%=      5-min Rain = 0
KCL1 250050Z 06009KT 23/07 A2968 RMK A01 T02300068  RH  035%=      5-min Rain = 0
KCL1 250051Z 05009KT 23/07 A2968 RMK A01 T02300067  RH  035%=      5-min Rain = 0
KCL1 250052Z 05009KT 23/07 A2968 RMK A01 T02290067  RH  035%=      5-min Rain = 0
KCL1 250053Z 05009KT 23/07 A2968 RMK A01 T02290068  RH  035%=      5-min Rain = 0
KCL1 250054Z 05009KT 23/07 A2968 RMK A01 T02290070  RH  036%=      5-min Rain = 0
KCL1 250055Z 06009KT 23/07 A2968 RMK A01 T02280071  RH  036%=      5-min Rain = 0
KCL1 250056Z 06008KT 23/07 A2968 RMK A01 T02270072  RH  037%=      5-min Rain = 0
KCL1 250057Z 06008KT 23/07 A2968 RMK A01 T02260072  RH  037%=      5-min Rain = 0
KCL1 250058Z 06008KT 23/07 A2968 RMK A01 T02260072  RH  037%=      5-min Rain = 0
KCL1 250059Z 06008KT 23/07 A2968 RMK A01 T02250072  RH  037%=      5-min Rain = 0
KCL1 250100Z 06009KT 23/07 A2968 RMK A01 T02250072  RH  037%=      5-min Rain = 0
KCL1 250101Z 06009KT 23/07 A2968 RMK A01 T02250073  RH  037%=      5-min Rain = 0
KCL1 250102Z 05009KT 23/07 A2968 RMK A01 T02250072  RH  037%=      5-min Rain = 0
KCL1 250103Z 05010KT 23/07 A2967 RMK A01 T02250073  RH  038%=      5-min Rain = 0
KCL1 250104Z 05010KT 23/07 A2967 RMK A01 T02250074  RH  038%=      5-min Rain = 0
KCL1 250105Z 05010KT 22/08 A2967 RMK A01 T02240076  RH  038%=      5-min Rain = 0
KCL1 250106Z 06010KT 22/08 A2967 RMK A01 T02230077  RH  039%=      5-min Rain = 0
KCL1 250107Z 06010KT 22/08 A2967 RMK A01 T02220078  RH  039%=      5-min Rain = 0
KCL1 250108Z 06010KT 22/08 A2967 RMK A01 T02220078  RH  040%=      5-min Rain = 0
KCL1 250109Z 06009KT 22/08 A2967 RMK A01 T02210079  RH  040%=      5-min Rain = 0
KCL1 250110Z 06010KT 22/08 A2967 RMK A01 T02190078  RH  040%=      5-min Rain = 0
KCL1 250111Z 07011KT 22/08 A2967 RMK A01 T02180080  RH  041%=      5-min Rain = 0
KCL1 250112Z 06011KT 22/08 A2967 RMK A01 T02170082  RH  042%=      5-min Rain = 0
KCL1 250113Z 07012KT 22/08 A2967 RMK A01 T02150084  RH  043%=      5-min Rain = 0
KCL1 250114Z 08013KT 21/09 A2967 RMK A01 T02130087  RH  044%=      5-min Rain = 0
KCL1 250115Z 07014KT 21/09 A2967 RMK A01 T02110090  RH  046%=      5-min Rain = 0
KCL1 250116Z 08014KT 21/09 A2967 RMK A01 T02090091  RH  047%=      5-min Rain = 0
KCL1 250117Z 08013KT 21/09 A2967 RMK A01 T02070092  RH  048%=      5-min Rain = 0
KCL1 250118Z 08013KT 21/09 A2967 RMK A01 T02060092  RH  048%=      5-min Rain = 0
KCL1 250119Z 08012KT 21/09 A2967 RMK A01 T02060092  RH  048%=      5-min Rain = 0
KCL1 250120Z 08012KT 21/09 A2967 RMK A01 T02060092  RH  048%=      5-min Rain = 0
KCL1 250121Z 08011KT 21/09 A2967 RMK A01 T02060089  RH  047%=      5-min Rain = 0
KCL1 250122Z 08011KT 21/09 A2967 RMK A01 T02070090  RH  047%=      5-min Rain = 0
KCL1 250123Z 08010KT 21/09 A2967 RMK A01 T02070090  RH  047%=      5-min Rain = 0
KCL1 250124Z 08011KT 21/09 A2966 RMK A01 T02070088  RH  047%=      5-min Rain = 0
KCL1 250125Z 07010KT 21/09 A2966 RMK A01 T02080085  RH  045%=      5-min Rain = 0
KCL1 250126Z 07010KT 21/09 A2966 RMK A01 T02100085  RH  045%=      5-min Rain = 0
KCL1 250127Z 08009KT 21/09 A2966 RMK A01 T02110085  RH  044%=      5-min Rain = 0
KCL1 250128Z 07010KT 21/09 A2966 RMK A01 T02110085  RH  044%=      5-min Rain = 0
KCL1 250129Z 08012G17KT 21/09 A2966 RMK A01 T02110085  RH  044%=      5-min Rain = 0
KCL1 250130Z 08013KT 21/09 A2966 RMK A01 T02110085  RH  045%=      5-min Rain = 0
KCL1 250131Z 08012KT 21/09 A2966 RMK A01 T02100087  RH  045%=      5-min Rain = 0
KCL1 250132Z 08013KT 21/09 A2966 RMK A01 T02090087  RH  045%=      5-min Rain = 0
KCL1 250133Z 08011KT 21/09 A2966 RMK A01 T02090087  RH  046%=      5-min Rain = 0
KCL1 250134Z 08010KT 21/09 A2966 RMK A01 T02080089  RH  046%=      5-min Rain = 0
KCL1 250135Z 08010KT 21/09 A2966 RMK A01 T02060089  RH  047%=      5-min Rain = 0
KCL1 250136Z 09010KT 21/09 A2967 RMK A01 T02050090  RH  048%=      5-min Rain = 0
KCL1 250137Z 09010KT 20/09 A2967 RMK A01 T02040092  RH  049%=      5-min Rain = 0
KCL1 250138Z 09010KT 20/09 A2967 RMK A01 T02020093  RH  049%=      5-min Rain = 0
KCL1 250139Z 09010KT 20/09 A2967 RMK A01 T02010093  RH  050%=      5-min Rain = 0
KCL1 250140Z 09010KT 20/09 A2967 RMK A01 T01990094  RH  051%=      5-min Rain = 0
KCL1 250141Z 10010KT 20/09 A2967 RMK A01 T01980094  RH  051%=      5-min Rain = 0
KCL1 250142Z 12010KT 20/10 A2968 RMK A01 T01970095  RH  052%=      5-min Rain = 0
KCL1 250143Z 14012KT 20/10 A2968 RMK A01 T01960096  RH  053%=      5-min Rain = 0
KCL1 250144Z 15011KT 20/10 A2969 RMK A01 T01950097  RH  053%=      5-min Rain = 0
KCL1 250145Z 15011KT 19/10 A2969 RMK A01 T01940095  RH  053%=      5-min Rain = 0
KCL1 250146Z 14010KT 19/09 A2969 RMK A01 T01930092  RH  052%=      5-min Rain = 0
KCL1 250147Z 13009KT 20/09 A297 RMK A01 T01950091  RH  051%=      5-min Rain = 0
KCL1 250148Z 14010KT 20/09 A297 RMK A01 T01970090  RH  050%=      5-min Rain = 0
KCL1 250149Z 13012KT 20/09 A297 RMK A01 T01980086  RH  048%=      5-min Rain = 0
KCL1 250150Z 13013KT 20/08 A297 RMK A01 T02010083  RH  046%=      5-min Rain = 0
KCL1 250151Z 13011KT 20/08 A297 RMK A01 T02040081  RH  045%=      5-min Rain = 0
KCL1 250152Z 13014G19KT 21/08 A297 RMK A01 T02060080  RH  044%=      5-min Rain = 0
KCL1 250153Z 12011KT 21/08 A2971 RMK A01 T02080079  RH  044%=      5-min Rain = 0
KCL1 250154Z 12010KT 21/08 A2971 RMK A01 T02080080  RH  044%=      5-min Rain = 0
KCL1 250155Z 12009KT 21/08 A2972 RMK A01 T02080083  RH  044%=      5-min Rain = 0
KCL1 250156Z 11009KT 21/09 A2972 RMK A01 T02070086  RH  046%=      5-min Rain = 0
KCL1 250157Z 10010KT 20/09 A2972 RMK A01 T02040087  RH  047%=      5-min Rain = 0
KCL1 250158Z 10011KT 20/09 A2972 RMK A01 T02020087  RH  048%=      5-min Rain = 0
KCL1 250159Z 11010KT 20/09 A2972 RMK A01 T02000087  RH  048%=      5-min Rain = 0
KCL1 250200Z 11010KT 20/09 A2972 RMK A01 T01990087  RH  048%=      5-min Rain = 0
KCL1 250201Z 10010KT 20/09 A2972 RMK A01 T01980087  RH  048%=      5-min Rain = 0
KCL1 250202Z 10009KT 20/09 A2971 RMK A01 T01980086  RH  048%=      5-min Rain = 0
KCL1 250203Z 10009KT 20/09 A2971 RMK A01 T01980085  RH  048%=      5-min Rain = 0
KCL1 250204Z 10008KT 20/08 A2971 RMK A01 T01980084  RH  048%=      5-min Rain = 0
KCL1 250205Z 10007KT 20/08 A2971 RMK A01 T01980084  RH  048%=      5-min Rain = 0
KCL1 250206Z 10008KT 20/09 A2971 RMK A01 T01980085  RH  048%=      5-min Rain = 0
KCL1 250207Z 10008KT 20/08 A2971 RMK A01 T01980084  RH  048%=      5-min Rain = 0
KCL1 250208Z 09008KT 20/08 A2971 RMK A01 T01980084  RH  048%=      5-min Rain = 0
KCL1 250209Z 09008KT 20/09 A2971 RMK A01 T01970085  RH  048%=      5-min Rain = 0
KCL1 250210Z 09008KT 20/09 A2971 RMK A01 T01970086  RH  049%=      5-min Rain = 0
KCL1 250211Z 08010KT 20/09 A2972 RMK A01 T01960086  RH  049%=      5-min Rain = 0
KCL1 250212Z 08013KT 20/09 A2972 RMK A01 T01960088  RH  050%=      5-min Rain = 0
KCL1 250213Z 08014KT 20/09 A2973 RMK A01 T01950089  RH  050%=      5-min Rain = 0
KCL1 250214Z 08014KT 19/09 A2973 RMK A01 T01940088  RH  050%=      5-min Rain = 0
KCL1 250215Z 08012KT 19/09 A2973 RMK A01 T01940087  RH  050%=      5-min Rain = 0
KCL1 250216Z 08013KT 19/09 A2973 RMK A01 T01940087  RH  050%=      5-min Rain = 0
KCL1 250217Z 09015KT 20/08 A2973 RMK A01 T01960083  RH  048%=      5-min Rain = 0
KCL1 250218Z 08013KT 20/08 A2973 RMK A01 T01980083  RH  047%=      5-min Rain = 0
KCL1 250219Z 08012KT 20/08 A2972 RMK A01 T01990083  RH  047%=      5-min Rain = 0
KCL1 250220Z 08013KT 20/08 A2972 RMK A01 T01990082  RH  047%=      5-min Rain = 0
KCL1 250221Z 08011KT 20/08 A2972 RMK A01 T02000082  RH  047%=      5-min Rain = 0
KCL1 250222Z 09010KT 20/08 A2972 RMK A01 T02000082  RH  047%=      5-min Rain = 0
KCL1 250223Z 09010KT 20/08 A2971 RMK A01 T02000083  RH  047%=      5-min Rain = 0
KCL1 250224Z 09010KT 20/08 A2971 RMK A01 T01990083  RH  047%=      5-min Rain = 0
KCL1 250225Z 09011KT 20/08 A2971 RMK A01 T01990084  RH  047%=      5-min Rain = 0
KCL1 250226Z 08013KT 20/08 A2971 RMK A01 T01980084  RH  048%=      5-min Rain = 0
KCL1 250227Z 09017G23KT 20/09 A2971 RMK A01 T01980085  RH  048%=      5-min Rain = 0
KCL1 250228Z 08017G23KT 20/09 A297 RMK A01 T01970085  RH  048%=      5-min Rain = 0
KCL1 250229Z 08015KT 20/09 A297 RMK A01 T01970087  RH  049%=      5-min Rain = 0
KCL1 250230Z 08015KT 20/09 A297 RMK A01 T01960087  RH  049%=      5-min Rain = 0
KCL1 250231Z 08012KT 20/09 A297 RMK A01 T01950087  RH  050%=      5-min Rain = 0
KCL1 250232Z 08010KT 19/09 A297 RMK A01 T01940088  RH  050%=      5-min Rain = 0
KCL1 250233Z 09009KT 19/09 A2971 RMK A01 T01930089  RH  051%=      5-min Rain = 0
KCL1 250234Z 09008KT 19/09 A2971 RMK A01 T01920090  RH  052%=      5-min Rain = 0
KCL1 250235Z 08009KT 19/09 A2971 RMK A01 T01910089  RH  052%=      5-min Rain = 0
KCL1 250236Z 08009KT 19/09 A2971 RMK A01 T01910086  RH  051%=      5-min Rain = 0
KCL1 250237Z 08013KT 19/09 A2971 RMK A01 T01910085  RH  050%=      5-min Rain = 0
KCL1 250238Z 08014KT 19/08 A2972 RMK A01 T01920083  RH  049%=      5-min Rain = 0
KCL1 250239Z 08015KT 19/09 A2972 RMK A01 T01920086  RH  050%=      5-min Rain = 0
KCL1 250240Z 08017KT 19/09 A2971 RMK A01 T01910087  RH  051%=      5-min Rain = 0
KCL1 250241Z 07015KT 19/09 A2971 RMK A01 T01900089  RH  052%=      5-min Rain = 0
KCL1 250242Z 07014KT 19/09 A2971 RMK A01 T01880091  RH  053%=      5-min Rain = 0
KCL1 250243Z 07015KT 19/09 A2971 RMK A01 T01870092  RH  054%=      5-min Rain = 0
KCL1 250244Z 08014KT 19/09 A2971 RMK A01 T01860093  RH  055%=      5-min Rain = 0
KCL1 250245Z 08013KT 19/09 A2971 RMK A01 T01850094  RH  055%=      5-min Rain = 0
KCL1 250246Z 08013G18KT 18/10 A2971 RMK A01 T01840095  RH  056%=      5-min Rain = 0
KCL1 250247Z 08013KT 18/10 A2971 RMK A01 T01840097  RH  057%=      5-min Rain = 0
KCL1 250248Z 09012KT 18/10 A2971 RMK A01 T01840099  RH  058%=      5-min Rain = 0
KCL1 250249Z 09011KT 18/10 A2971 RMK A01 T01830102  RH  059%=      5-min Rain = 0
KCL1 250250Z 10011KT 18/10 A2971 RMK A01 T01830104  RH  060%=      5-min Rain = 0
KCL1 250251Z 09012KT 18/11 A297 RMK A01 T01810105  RH  061%=      5-min Rain = 0
KCL1 250252Z 09014KT 18/11 A297 RMK A01 T01800107  RH  063%=      5-min Rain = 0
KCL1 250253Z 09012KT 18/11 A2969 RMK A01 T01780109  RH  064%=      5-min Rain = 0
KCL1 250254Z 08011KT 18/11 A2969 RMK A01 T01770111  RH  065%=      5-min Rain = 0
KCL1 250255Z 08011KT 18/11 A2969 RMK A01 T01750112  RH  066%=      5-min Rain = 0
KCL1 250256Z 09011KT 18/11 A2968 RMK A01 T01750113  RH  067%=      5-min Rain = 0
KCL1 250257Z 10010KT 17/11 A2969 RMK A01 T01740114  RH  067%=      5-min Rain = 0
KCL1 250258Z 10012KT 17/11 A2969 RMK A01 T01740114  RH  068%=      5-min Rain = 0
KCL1 250259Z 10011KT 17/12 A2969 RMK A01 T01730115  RH  069%=      5-min Rain = 0
KCL1 250300Z 10011KT 17/12 A2969 RMK A01 T01730115  RH  069%=      5-min Rain = 0
KCL1 250301Z 09010KT 17/12 A2969 RMK A01 T01730116  RH  069%=      5-min Rain = 0
KCL1 250302Z 09011KT 17/12 A2969 RMK A01 T01730117  RH  069%=      5-min Rain = 0
KCL1 250303Z 09012KT 17/12 A297 RMK A01 T01730117  RH  069%=      5-min Rain = 0
KCL1 250304Z 09013KT 17/12 A297 RMK A01 T01740117  RH  069%=      5-min Rain = 0
KCL1 250305Z 09012KT 17/12 A2971 RMK A01 T01730117  RH  069%=      5-min Rain = 0
KCL1 250306Z 09012KT 17/12 A2971 RMK A01 T01740117  RH  069%=      5-min Rain = 0
KCL1 250307Z 10011KT 18/12 A2971 RMK A01 T01750117  RH  069%=      5-min Rain = 0
KCL1 250308Z 10010KT 18/12 A2971 RMK A01 T01750117  RH  069%=      5-min Rain = 0
KCL1 250309Z 11010KT 18/12 A2972 RMK A01 T01760117  RH  068%=      5-min Rain = 0
KCL1 250310Z 11009KT 18/12 A2972 RMK A01 T01760117  RH  068%=      5-min Rain = 0
KCL1 250311Z 11009KT 18/12 A2973 RMK A01 T01760116  RH  068%=      5-min Rain = 0
KCL1 250312Z 11009KT 18/12 A2973 RMK A01 T01760116  RH  068%=      5-min Rain = 0
KCL1 250313Z 11009KT 18/12 A2973 RMK A01 T01760115  RH  067%=      5-min Rain = 0
KCL1 250314Z 11008KT 18/12 A2973 RMK A01 T01760115  RH  067%=      5-min Rain = 0
KCL1 250315Z 10008KT 18/12 A2973 RMK A01 T01760115  RH  067%=      5-min Rain = 0
KCL1 250316Z 10008KT 18/12 A2974 RMK A01 T01770115  RH  067%=      5-min Rain = 0
KCL1 250317Z 10008KT 18/12 A2974 RMK A01 T01770115  RH  067%=      5-min Rain = 0
KCL1 250318Z 10009KT 18/11 A2974 RMK A01 T01770114  RH  067%=      5-min Rain = 0
KCL1 250319Z 10009KT 18/11 A2974 RMK A01 T01780114  RH  066%=      5-min Rain = 0
KCL1 250320Z 10009KT 18/11 A2974 RMK A01 T01780113  RH  066%=      5-min Rain = 0
KCL1 250321Z 10008KT 18/11 A2974 RMK A01 T01790112  RH  065%=      5-min Rain = 0
KCL1 250322Z 10008KT 18/11 A2974 RMK A01 T01800112  RH  065%=      5-min Rain = 0
KCL1 250323Z 09009KT 18/11 A2974 RMK A01 T01800112  RH  064%=      5-min Rain = 0
KCL1 250324Z 09009KT 18/11 A2974 RMK A01 T01810111  RH  064%=      5-min Rain = 0
KCL1 250325Z 09010KT 18/11 A2974 RMK A01 T01810110  RH  063%=      5-min Rain = 0
KCL1 250326Z 10009KT 18/11 A2974 RMK A01 T01820108  RH  062%=      5-min Rain = 0
KCL1 250327Z 11010KT 18/11 A2974 RMK A01 T01830107  RH  061%=      5-min Rain = 0
KCL1 250328Z 10009KT 18/11 A2974 RMK A01 T01840106  RH  060%=      5-min Rain = 0
KCL1 250329Z 10009KT 19/11 A2974 RMK A01 T01850105  RH  059%=      5-min Rain = 0
KCL1 250330Z 09009KT 19/10 A2974 RMK A01 T01860103  RH  058%=      5-min Rain = 0
KCL1 250331Z 09008KT 19/10 A2974 RMK A01 T01870102  RH  058%=      5-min Rain = 0
KCL1 250332Z 09009KT 19/10 A2974 RMK A01 T01870102  RH  058%=      5-min Rain = 0
KCL1 250333Z 08009KT 19/10 A2974 RMK A01 T01870100  RH  057%=      5-min Rain = 0
KCL1 250334Z 08010KT 19/10 A2973 RMK A01 T01880099  RH  056%=      5-min Rain = 0
KCL1 250335Z 07010KT 19/10 A2973 RMK A01 T01890098  RH  056%=      5-min Rain = 0
KCL1 250336Z 07009KT 19/10 A2973 RMK A01 T01900099  RH  055%=      5-min Rain = 0
KCL1 250337Z 07009KT 19/10 A2973 RMK A01 T01890101  RH  056%=      5-min Rain = 0
KCL1 250338Z 07011KT 19/10 A2973 RMK A01 T01880102  RH  057%=      5-min Rain = 0
KCL1 250339Z 07012KT 19/10 A2973 RMK A01 T01860103  RH  058%=      5-min Rain = 0
KCL1 250340Z 06011KT 19/10 A2973 RMK A01 T01850104  RH  059%=      5-min Rain = 0
KCL1 250341Z 06014KT 18/11 A2973 RMK A01 T01830105  RH  060%=      5-min Rain = 0
KCL1 250342Z 06013KT 18/11 A2973 RMK A01 T01820105  RH  061%=      5-min Rain = 0
KCL1 250343Z 07015KT 18/11 A2973 RMK A01 T01810106  RH  061%=      5-min Rain = 0
KCL1 250344Z 07014KT 18/11 A2973 RMK A01 T01790106  RH  062%=      5-min Rain = 0
KCL1 250345Z 07015KT 18/11 A2973 RMK A01 T01780107  RH  063%=      5-min Rain = 0
KCL1 250346Z 07015KT 18/11 A2973 RMK A01 T01770107  RH  064%=      5-min Rain = 0
KCL1 250347Z 07016KT 18/11 A2973 RMK A01 T01760108  RH  064%=      5-min Rain = 0
KCL1 250348Z 07015KT 18/11 A2973 RMK A01 T01760108  RH  065%=      5-min Rain = 0
KCL1 250349Z 07016KT 18/11 A2973 RMK A01 T01750109  RH  065%=      5-min Rain = 0
KCL1 250350Z 07017KT 18/11 A2973 RMK A01 T01750109  RH  065%=      5-min Rain = 0
KCL1 250351Z 07016G21KT 17/11 A2973 RMK A01 T01740109  RH  065%=      5-min Rain = 0
KCL1 250352Z 07019KT 17/11 A2973 RMK A01 T01740107  RH  065%=      5-min Rain = 0
KCL1 250353Z 07019G25KT 17/11 A2973 RMK A01 T01730106  RH  064%=      5-min Rain = 0
KCL1 250354Z 07019KT 17/11 A2973 RMK A01 T01730105  RH  064%=      5-min Rain = 0
KCL1 250355Z 07017G24KT 17/11 A2974 RMK A01 T01730105  RH  065%=      5-min Rain = 0
KCL1 250356Z 07019KT 17/11 A2974 RMK A01 T01720106  RH  065%=      5-min Rain = 0
KCL1 250357Z 08016KT 17/11 A2974 RMK A01 T01720105  RH  065%=      5-min Rain = 0
KCL1 250358Z 08016KT 17/11 A2974 RMK A01 T01710105  RH  065%=      5-min Rain = 0
KCL1 250359Z 08013KT 17/11 A2974 RMK A01 T01700106  RH  066%=      5-min Rain = 0
KCL1 250400Z 08013KT 17/11 A2974 RMK A01 T01700106  RH  066%=      5-min Rain = 0
KCL1 250401Z 07015KT 17/11 A2974 RMK A01 T01690105  RH  066%=      5-min Rain = 0
KCL1 250402Z 08014KT 17/10 A2974 RMK A01 T01680104  RH  066%=      5-min Rain = 0
KCL1 250403Z 07013KT 17/11 A2974 RMK A01 T01680105  RH  066%=      5-min Rain = 0
KCL1 250404Z 07011KT 17/11 A2974 RMK A01 T01670105  RH  067%=      5-min Rain = 0
KCL1 250405Z 07012KT 17/11 A2974 RMK A01 T01660106  RH  067%=      5-min Rain = 0
KCL1 250406Z 07013KT 17/11 A2974 RMK A01 T01650106  RH  068%=      5-min Rain = 0
KCL1 250407Z 07012KT 17/11 A2974 RMK A01 T01650106  RH  068%=      5-min Rain = 0
KCL1 250408Z 07013KT 16/11 A2973 RMK A01 T01640106  RH  068%=      5-min Rain = 0
KCL1 250409Z 07013KT 16/11 A2973 RMK A01 T01640106  RH  069%=      5-min Rain = 0
KCL1 250410Z 07011KT 16/11 A2973 RMK A01 T01640107  RH  069%=      5-min Rain = 0
KCL1 250411Z 07012KT 16/11 A2973 RMK A01 T01630107  RH  069%=      5-min Rain = 0
KCL1 250412Z 07012KT 16/11 A2974 RMK A01 T01620107  RH  070%=      5-min Rain = 0
KCL1 250413Z 07012G17KT 16/11 A2974 RMK A01 T01620107  RH  070%=      5-min Rain = 0
KCL1 250414Z 07014KT 16/11 A2974 RMK A01 T01620107  RH  070%=      5-min Rain = 0
KCL1 250415Z 07012KT 16/11 A2974 RMK A01 T01620107  RH  070%=      5-min Rain = 0
KCL1 250416Z 07014KT 16/11 A2974 RMK A01 T01610107  RH  070%=      5-min Rain = 0
KCL1 250417Z 07015KT 16/11 A2974 RMK A01 T01610106  RH  070%=      5-min Rain = 0
KCL1 250418Z 08012KT 16/11 A2974 RMK A01 T01610106  RH  070%=      5-min Rain = 0
KCL1 250419Z 08012KT 16/11 A2974 RMK A01 T01600106  RH  070%=      5-min Rain = 0
KCL1 250420Z 08013KT 16/11 A2974 RMK A01 T01590106  RH  070%=      5-min Rain = 0
KCL1 250421Z 08012KT 16/11 A2974 RMK A01 T01590106  RH  071%=      5-min Rain = 0
KCL1 250422Z 08012KT 16/11 A2974 RMK A01 T01590106  RH  071%=      5-min Rain = 0
KCL1 250423Z 07012KT 16/11 A2974 RMK A01 T01590106  RH  071%=      5-min Rain = 0
KCL1 250424Z 07013KT 16/11 A2974 RMK A01 T01580106  RH  071%=      5-min Rain = 0
KCL1 250425Z 06013KT 16/11 A2974 RMK A01 T01580106  RH  071%=      5-min Rain = 0
KCL1 250426Z 06013KT 16/11 A2974 RMK A01 T01580106  RH  071%=      5-min Rain = 0
KCL1 250427Z 06012KT 16/11 A2974 RMK A01 T01580107  RH  071%=      5-min Rain = 0
KCL1 250428Z 06013KT 16/11 A2975 RMK A01 T01580107  RH  072%=      5-min Rain = 0
KCL1 250429Z 05014KT 16/11 A2975 RMK A01 T01580107  RH  072%=      5-min Rain = 0
KCL1 250430Z 05012KT 16/11 A2975 RMK A01 T01580107  RH  072%=      5-min Rain = 0
KCL1 250431Z 05013KT 16/11 A2975 RMK A01 T01570107  RH  072%=      5-min Rain = 0
KCL1 250432Z 05012KT 16/11 A2975 RMK A01 T01570107  RH  072%=      5-min Rain = 0
KCL1 250433Z 06014G20KT 16/11 A2974 RMK A01 T01570108  RH  072%=      5-min Rain = 0
KCL1 250434Z 06016KT 16/11 A2974 RMK A01 T01570107  RH  072%=      5-min Rain = 0
KCL1 250435Z 06015KT 16/11 A2974 RMK A01 T01570107  RH  072%=      5-min Rain = 0
KCL1 250436Z 05013KT 16/11 A2974 RMK A01 T01570106  RH  072%=      5-min Rain = 0
KCL1 250437Z 06013KT 16/11 A2974 RMK A01 T01570107  RH  072%=      5-min Rain = 0
KCL1 250438Z 05014G19KT 16/11 A2974 RMK A01 T01570107  RH  072%=      5-min Rain = 0
KCL1 250439Z 05014KT 16/11 A2974 RMK A01 T01570109  RH  073%=      5-min Rain = 0
KCL1 250440Z 04017G22KT 16/11 A2974 RMK A01 T01560112  RH  075%=      5-min Rain = 0
KCL1 250441Z 05019KT 15/11 A2974 RMK A01 T01530114  RH  077%=      5-min Rain = 0
KCL1 250442Z 06020KT 15/11 A2974 RMK A01 T01510114  RH  078%=      5-min Rain = 0
KCL1 250443Z 06017G23KT 15/11 A2974 RMK A01 T01500114  RH  079%=      5-min Rain = 0
KCL1 250444Z 06018KT 15/12 A2974 RMK A01 T01490115  RH  080%=      5-min Rain = 0
KCL1 250445Z 06018KT 15/11 A2974 RMK A01 T01480114  RH  080%=      5-min Rain = 0
KCL1 250446Z 06020G27KT 15/11 A2974 RMK A01 T01470114  RH  081%=      5-min Rain = 0
KCL1 250447Z 06018KT 15/11 A2974 RMK A01 T01460114  RH  081%=      5-min Rain = 0
KCL1 250448Z 06018KT 15/12 A2974 RMK A01 T01450115  RH  082%=      5-min Rain = 0
KCL1 250449Z 06017G22KT 15/12 A2974 RMK A01 T01450115  RH  083%=      5-min Rain = 0
KCL1 250450Z 06020KT 14/12 A2974 RMK A01 T01440115  RH  083%=      5-min Rain = 0
KCL1 250451Z 06017G22KT 14/12 A2974 RMK A01 T01440116  RH  083%=      5-min Rain = 0
KCL1 250452Z 07016G22KT 14/12 A2974 RMK A01 T01430117  RH  084%=      5-min Rain = 0
KCL1 250453Z 07018KT 14/12 A2974 RMK A01 T01430117  RH  084%=      5-min Rain = 0
KCL1 250454Z 06018KT 14/12 A2974 RMK A01 T01420117  RH  085%=      5-min Rain = 0
KCL1 250455Z 07015KT 14/12 A2974 RMK A01 T01420118  RH  085%=      5-min Rain = 0
KCL1 250456Z 07015KT 14/12 A2974 RMK A01 T01420119  RH  086%=      5-min Rain = 0
KCL1 250457Z 06015KT 14/12 A2974 RMK A01 T01420118  RH  086%=      5-min Rain = 0
KCL1 250458Z 07019KT 14/12 A2975 RMK A01 T01420117  RH  085%=      5-min Rain = 0
KCL1 250459Z 07019KT 14/12 A2975 RMK A01 T01420116  RH  084%=      5-min Rain = 0

Page generated in 0.097 seconds.